Data for 01/19/2012

Time Sea-Level Adjusted Pressure Absolute Pressure Temperature Relative Humidity Dew Point Precipitation   
(mb) (inHg) (mb) (inHg) (C) (F) (%) (C) (F) (mm) (in)
00:01 1006 29.71 835 24.66 -12.4 9.7 86 -14.2 6.5 -92.9 -3.657
00:02 1006 29.71 835 24.66 -12.4 9.7 87 -14.2 6.5 -92.9 -3.657
00:03 1006 29.71 835 24.66 -12.4 9.7 86 -14.2 6.4 -92.9 -3.657
00:04 1006 29.71 835 24.66 -12.4 9.7 85 -14.4 6.1 -92.9 -3.657
00:05 1006 29.71 835 24.66 -12.5 9.6 85 -14.4 6 -92.9 -3.657
00:06 1006 29.71 835 24.66 -12.5 9.4 86 -14.5 6 -92.9 -3.657
00:07 1006 29.71 835 24.66 -12.6 9.4 86 -14.4 6.1 -92.9 -3.657
00:08 1006 29.71 835 24.66 -12.6 9.3 86 -14.5 5.9 -92.9 -3.657
00:09 1006 29.71 835 24.66 -12.7 9.2 86 -14.6 5.8 -92.9 -3.657
00:10 1006 29.71 835 24.66 -12.7 9.1 86 -14.6 5.7 -92.9 -3.657
00:11 1006 29.71 835 24.66 -12.7 9.1 86 -14.6 5.7 -92.9 -3.657
00:12 1006 29.71 835 24.66 -12.8 9 86 -14.7 5.5 -92.9 -3.657
00:13 1006 29.71 835 24.66 -12.9 8.9 86 -14.8 5.4 -93 -3.661
00:14 1006 29.71 835 24.66 -12.9 8.8 85 -14.9 5.2 -93 -3.661
00:15 1006 29.71 835 24.66 -13 8.7 85 -14.9 5.1 -93 -3.661
00:16 1006 29.71 835 24.66 -13 8.7 85 -15 5.1 -93 -3.661
00:17 1006 29.71 835 24.66 -13 8.5 85 -15 5 -93 -3.661
00:18 1006 29.71 835 24.66 -13 8.6 85 -15 5 -93 -3.661
00:19 1006 29.71 835 24.66 -13.1 8.5 85 -15 4.9 -93 -3.661
00:20 1006 29.71 835 24.66 -13 8.5 86 -15 5.1 -93 -3.661
00:21 1006 29.71 835 24.66 -13.1 8.5 86 -15 5 -93 -3.661
00:22 1006 29.71 835 24.66 -13 8.5 86 -15 5 -93 -3.661
00:23 1006 29.71 835 24.66 -13.1 8.5 86 -14.9 5.1 -93 -3.661
00:24 1006 29.71 835 24.66 -13 8.5 85 -15 5 -93 -3.661
00:25 1006 29.71 835 24.66 -13 8.5 86 -15 5.1 -93 -3.661
00:26 1006 29.71 835 24.66 -13 8.5 86 -14.9 5.2 -93 -3.661
00:27 1006 29.71 835 24.66 -13 8.6 86 -14.9 5.2 -93 -3.661
00:28 1006 29.71 835 24.66 -13 8.6 86 -14.9 5.2 -93 -3.661
00:29 1006 29.71 835 24.66 -13 8.6 86 -14.9 5.2 -93 -3.661
00:30 1006 29.71 835 24.66 -13 8.7 86 -14.9 5.2 -93 -3.661
00:31 1006 29.71 835 24.66 -13 8.6 86 -14.9 5.2 -93 -3.661
00:32 1006 29.71 836 24.69 -13 8.6 86 -14.9 5.3 -93 -3.661
00:33 1006 29.71 836 24.69 -13 8.7 86 -14.8 5.3 -93 -3.661
00:34 1006 29.71 836 24.69 -13 8.7 85 -15 5 -93 -3.661
00:35 1006 29.71 835 24.66 -13 8.5 84 -15.1 4.7 -93.1 -3.665
00:36 1006 29.71 836 24.69 -13.1 8.5 84 -15.2 4.6 -93.1 -3.665
00:37 1006 29.71 835 24.66 -13.1 8.3 84 -15.3 4.5 -93.1 -3.665
00:38 1006 29.71 835 24.66 -13.2 8.2 84 -15.3 4.4 -93.1 -3.665
00:39 1006 29.71 835 24.66 -13.3 8.1 85 -15.3 4.4 -93.1 -3.665
00:40 1006 29.71 835 24.66 -13.3 8.1 84 -15.4 4.3 -93.1 -3.665
00:41 1006 29.71 835 24.66 -13.3 8 85 -15.4 4.3 -93.1 -3.665
00:42 1006 29.71 835 24.66 -13.3 8 85 -15.3 4.4 -93.1 -3.665
00:43 1006 29.71 835 24.66 -13.3 8 85 -15.4 4.3 -93.1 -3.665
00:44 1006 29.71 835 24.66 -13.3 8 84 -15.5 4.2 -93.1 -3.665
00:45 1006 29.71 835 24.66 -13.4 7.9 84 -15.5 4.1 -93.1 -3.665
00:46 1006 29.71 835 24.66 -13.4 7.9 85 -15.4 4.3 -93.1 -3.665
00:47 1006 29.71 835 24.66 -13.4 7.8 84 -15.5 4.1 -93.1 -3.665
00:48 1006 29.71 835 24.66 -13.4 7.9 85 -15.4 4.3 -93.1 -3.665
00:49 1006 29.71 835 24.66 -13.4 7.8 85 -15.4 4.2 -93.2 -3.669
00:50 1006 29.71 835 24.66 -13.5 7.8 84 -15.6 3.9 -93.2 -3.669
00:51 1006 29.71 835 24.66 -13.5 7.7 85 -15.6 4 -93.1 -3.665
00:52 1006 29.71 835 24.66 -13.5 7.7 84 -15.6 3.9 -93.1 -3.665
00:53 1006 29.71 835 24.66 -13.6 7.6 84 -15.7 3.8 -93.2 -3.669
00:54 1006 29.71 835 24.66 -13.6 7.6 85 -15.6 3.9 -93.2 -3.669
00:55 1006 29.71 835 24.66 -13.6 7.5 85 -15.7 3.8 -93.2 -3.669
00:56 1006 29.71 835 24.66 -13.6 7.5 85 -15.7 3.7 -93.2 -3.669
00:57 1006 29.71 835 24.66 -13.6 7.5 84 -15.7 3.8 -93.2 -3.669
00:58 1006 29.71 835 24.66 -13.6 7.5 84 -15.7 3.7 -93.2 -3.669
00:59 1006 29.71 835 24.66 -13.7 7.4 84 -15.8 3.6 -93.2 -3.669
01:00 1006 29.71 835 24.66 -13.7 7.3 84 -15.8 3.6 -93.2 -3.669
01:01 1006 29.71 835 24.66 -13.7 7.4 84 -15.8 3.6 -93.2 -3.669
01:02 1006 29.71 835 24.66 -13.7 7.3 84 -15.9 3.5 -93.2 -3.669
01:03 1006 29.71 835 24.66 -13.8 7.2 84 -16 3.3 -93.2 -3.669
01:04 1006 29.71 835 24.66 -13.8 7.2 84 -15.9 3.3 -93.2 -3.669
01:05 1006 29.71 835 24.66 -13.8 7.2 84 -16 3.3 -93.2 -3.669
01:06 1006 29.71 835 24.66 -13.9 7.1 83 -16.1 3 -93.2 -3.669
01:07 1006 29.71 835 24.66 -13.9 7 83 -16.2 2.9 -93.2 -3.669
01:08 1006 29.71 835 24.66 -13.9 6.9 84 -16.1 3.1 -93.2 -3.669
01:09 1006 29.71 835 24.66 -13.9 7 84 -16.1 3 -93.2 -3.669
01:10 1006 29.71 835 24.66 -13.9 6.9 84 -16.1 3 -93.2 -3.669
01:11 1006 29.71 835 24.66 -14 6.9 84 -16.1 3 -93.2 -3.669
01:12 1006 29.71 835 24.66 -13.9 6.9 84 -16.1 3.1 -93.2 -3.669
01:13 1006 29.71 835 24.66 -14 6.9 84 -16.1 3 -93.2 -3.669
01:14 1006 29.71 835 24.66 -13.9 7 84 -16.1 3.1 -93.2 -3.669
01:15 1006 29.71 835 24.66 -13.9 6.9 84 -16.1 3.1 -93.2 -3.669
01:16 1006 29.71 835 24.66 -13.9 7 84 -16 3.2 -93.2 -3.669
01:17 1006 29.71 835 24.66 -13.9 7.1 84 -16 3.2 -93.2 -3.669
01:18 1006 29.71 835 24.66 -13.9 7.1 84 -16 3.2 -93.2 -3.669
01:19 1006 29.71 835 24.66 -13.9 7.1 84 -16 3.3 -93.2 -3.669
01:20 1006 29.71 835 24.66 -13.8 7.2 84 -15.9 3.3 -93.2 -3.669
01:21 1006 29.71 835 24.66 -13.8 7.1 84 -15.9 3.4 -93.2 -3.669
01:22 1006 29.71 835 24.66 -13.8 7.1 84 -15.9 3.3 -93.2 -3.669
01:23 1006 29.71 835 24.66 -13.8 7.1 84 -16 3.1 -93.2 -3.669
01:24 1006 29.71 835 24.66 -13.8 7.1 84 -16 3.2 -93.2 -3.669
01:25 1006 29.71 835 24.66 -13.8 7.1 84 -15.9 3.3 -93.2 -3.669
01:26 1006 29.71 835 24.66 -13.8 7.1 84 -16 3.2 -93.2 -3.669
01:27 1006 29.71 835 24.66 -13.9 7.1 83 -16.2 2.9 -93.2 -3.669
01:28 1006 29.71 835 24.66 -13.9 6.9 83 -16.2 2.9 -93.3 -3.673
01:29 1006 29.71 835 24.66 -13.9 6.9 84 -16.2 2.9 -93.3 -3.673
01:30 1006 29.71 835 24.66 -14 6.9 84 -16.2 2.9 -93.3 -3.673
01:31 1006 29.71 835 24.66 -14 6.8 84 -16.2 2.8 -93.3 -3.673
01:32 1006 29.71 835 24.66 -14 6.8 84 -16.1 3 -93.3 -3.673
01:33 1006 29.71 835 24.66 -14 6.9 84 -16 3.1 -93.3 -3.673
01:34 1006 29.71 835 24.66 -14 6.9 84 -16 3.1 -93.3 -3.673
01:35 1006 29.71 835 24.66 -13.9 7 84 -16 3.2 -93.3 -3.673
01:36 1006 29.71 835 24.66 -13.9 7 85 -16 3.2 -93.3 -3.673
01:37 1006 29.71 835 24.66 -13.9 7 85 -15.9 3.3 -93.3 -3.673
01:38 1006 29.71 835 24.66 -13.9 7.1 85 -15.8 3.5 -93.3 -3.673
01:39 1006 29.71 835 24.66 -13.8 7.1 84 -15.9 3.3 -93.3 -3.673
01:40 1006 29.71 835 24.66 -13.8 7.1 85 -15.9 3.4 -93.3 -3.673
01:41 1006 29.71 835 24.66 -13.9 7.1 85 -15.9 3.3 -93.3 -3.673
01:42 1006 29.71 835 24.66 -13.9 7 84 -16 3.3 -93.3 -3.673
01:43 1006 29.71 835 24.66 -13.9 7 85 -15.9 3.4 -93.3 -3.673
01:44 1006 29.71 835 24.66 -13.9 7 85 -15.9 3.4 -93.3 -3.673
01:45 1006 29.71 835 24.66 -13.9 7 85 -15.9 3.4 -93.3 -3.673
01:46 1006 29.71 835 24.66 -13.9 7 85 -15.9 3.3 -93.3 -3.673
01:47 1006 29.71 835 24.66 -13.9 7 85 -15.9 3.3 -93.3 -3.673
01:48 1006 29.71 835 24.66 -13.9 7 85 -15.9 3.3 -93.3 -3.673
01:49 1006 29.71 835 24.66 -13.9 6.9 85 -15.9 3.4 -93.3 -3.673
01:50 1006 29.71 835 24.66 -13.9 6.9 85 -15.9 3.3 -93.3 -3.673
01:51 1006 29.71 835 24.66 -14 6.9 85 -16 3.2 -93.3 -3.673
01:52 1006 29.71 835 24.66 -14 6.8 85 -16 3.2 -93.3 -3.673
01:53 1006 29.71 835 24.66 -14 6.8 85 -16 3.2 -93.3 -3.673
01:54 1006 29.71 835 24.66 -14 6.9 84 -16.1 3.1 -93.3 -3.673
01:55 1006 29.71 835 24.66 -14 6.7 84 -16.1 3 -93.3 -3.673
01:56 1006 29.71 835 24.66 -14 6.7 85 -16.1 3 -93.3 -3.673
01:57 1006 29.71 835 24.66 -14 6.7 85 -16.1 3.1 -93.3 -3.673
01:58 1006 29.71 835 24.66 -14.1 6.7 85 -16.1 3.1 -93.3 -3.673
01:59 1006 29.71 835 24.66 -14.1 6.7 85 -16.1 3.1 -93.3 -3.673
02:00 1006 29.71 835 24.66 -14 6.7 85 -16 3.1 -93.4 -3.677
02:01 1006 29.71 835 24.66 -14 6.7 85 -16.1 3 -93.4 -3.677
02:02 1006 29.71 835 24.66 -14.1 6.6 85 -16.2 2.9 -93.4 -3.677
02:03 1006 29.71 835 24.66 -14.1 6.6 85 -16.1 3 -93.4 -3.677
02:04 1006 29.71 835 24.66 -14.1 6.6 85 -16.1 2.9 -93.4 -3.677
02:05 1006 29.71 835 24.66 -14.1 6.6 85 -16.2 2.9 -93.4 -3.677
02:06 1006 29.71 835 24.66 -14.2 6.5 84 -16.2 2.8 -93.4 -3.677
02:07 1006 29.71 835 24.66 -14.1 6.6 85 -16.2 2.9 -93.4 -3.677
02:08 1006 29.71 835 24.66 -14.2 6.5 85 -16.2 2.8 -93.4 -3.677
02:09 1006 29.71 835 24.66 -14.2 6.5 85 -16.1 3 -93.4 -3.677
02:10 1006 29.71 835 24.66 -14.2 6.5 85 -16.2 2.9 -93.4 -3.677
02:11 1006 29.71 835 24.66 -14.2 6.4 85 -16.3 2.7 -93.4 -3.677
02:12 1006 29.71 835 24.66 -14.2 6.4 84 -16.3 2.6 -93.4 -3.677
02:13 1006 29.71 835 24.66 -14.3 6.3 85 -16.3 2.6 -93.4 -3.677
02:14 1006 29.71 835 24.66 -14.3 6.2 85 -16.3 2.7 -93.4 -3.677
02:15 1006 29.71 835 24.66 -14.3 6.2 85 -16.3 2.7 -93.4 -3.677
02:16 1006 29.71 835 24.66 -14.3 6.2 85 -16.4 2.5 -93.4 -3.677
02:17 1006 29.71 835 24.66 -14.4 6.1 85 -16.3 2.6 -93.4 -3.677
02:18 1006 29.71 835 24.66 -14.4 6.1 86 -16.3 2.7 -93.4 -3.677
02:19 1006 29.71 835 24.66 -14.4 6.1 85 -16.3 2.6 -93.4 -3.677
02:20 1006 29.71 835 24.66 -14.4 6.1 85 -16.4 2.5 -93.4 -3.677
02:21 1006 29.71 835 24.66 -14.4 6.1 85 -16.4 2.4 -93.4 -3.677
02:22 1006 29.71 835 24.66 -14.5 6 85 -16.5 2.4 -93.4 -3.677
02:23 1006 29.71 836 24.69 -14.5 6 86 -16.4 2.6 -93.4 -3.677
02:24 1006 29.71 835 24.66 -14.4 6.1 85 -16.3 2.6 -93.4 -3.677
02:25 1006 29.71 835 24.66 -14.4 6.1 85 -16.3 2.6 -93.4 -3.677
02:26 1006 29.71 835 24.66 -14.4 6.1 85 -16.4 2.4 -93.4 -3.677
02:27 1006 29.71 835 24.66 -14.4 6 85 -16.4 2.5 -93.4 -3.677
02:28 1006 29.71 835 24.66 -14.4 6.1 86 -16.3 2.7 -93.4 -3.677
02:29 1006 29.71 836 24.69 -14.4 6.1 85 -16.3 2.6 -93.4 -3.677
02:30 1006 29.71 836 24.69 -14.4 6.2 85 -16.3 2.6 -93.4 -3.677
02:31 1006 29.71 835 24.66 -14.4 6.1 85 -16.5 2.4 -93.4 -3.677
02:32 1006 29.71 836 24.69 -14.4 6.1 85 -16.4 2.6 -93.4 -3.677
02:33 1007 29.74 836 24.69 -14.4 6.1 86 -16.3 2.7 -93.4 -3.677
02:34 1006 29.71 836 24.69 -14.4 6.1 85 -16.3 2.6 -93.5 -3.681
02:35 1006 29.71 836 24.69 -14.4 6.1 85 -16.4 2.5 -93.5 -3.681
02:36 1006 29.71 836 24.69 -14.4 6.1 85 -16.4 2.4 -93.5 -3.681
02:37 1006 29.71 836 24.69 -14.4 6.1 85 -16.4 2.5 -93.5 -3.681
02:38 1006 29.71 836 24.69 -14.4 6.1 86 -16.3 2.7 -93.5 -3.681
02:39 1007 29.74 836 24.69 -14.3 6.2 86 -16.2 2.8 -93.5 -3.681
02:40 1007 29.74 836 24.69 -14.3 6.3 85 -16.3 2.7 -93.5 -3.681
02:41 1006 29.71 836 24.69 -14.3 6.3 84 -16.5 2.4 -93.5 -3.681
02:42 1007 29.74 836 24.69 -14.3 6.2 84 -16.6 2.2 -93.5 -3.681
02:43 1007 29.74 836 24.69 -14.4 6.1 84 -16.5 2.3 -93.5 -3.681
02:44 1007 29.74 836 24.69 -14.4 6.1 84 -16.6 2.2 -93.5 -3.681
02:45 1007 29.74 836 24.69 -14.5 6 84 -16.7 2 -93.5 -3.681
02:46 1006 29.71 836 24.69 -14.5 6 84 -16.6 2.1 -93.5 -3.681
02:47 1006 29.71 836 24.69 -14.5 5.9 83 -16.7 1.9 -93.5 -3.681
02:48 1006 29.71 836 24.69 -14.5 5.9 84 -16.6 2.1 -93.5 -3.681
02:49 1006 29.71 836 24.69 -14.5 5.9 84 -16.6 2.2 -93.5 -3.681
02:50 1007 29.74 836 24.69 -14.5 5.8 84 -16.7 1.9 -93.5 -3.681
02:51 1007 29.74 836 24.69 -14.5 5.9 84 -16.6 2.1 -93.5 -3.681
02:52 1007 29.74 836 24.69 -14.5 5.9 85 -16.6 2.2 -93.5 -3.681
02:53 1007 29.74 836 24.69 -14.4 6 85 -16.5 2.3 -93.5 -3.681
02:54 1007 29.74 836 24.69 -14.5 6 84 -16.6 2.1 -93.5 -3.681
02:55 1007 29.74 836 24.69 -14.5 6 84 -16.6 2.1 -93.5 -3.681
02:56 1007 29.74 836 24.69 -14.5 5.9 84 -16.7 1.9 -93.5 -3.681
02:57 1007 29.74 836 24.69 -14.6 5.8 85 -16.6 2 -93.5 -3.681
02:58 1007 29.74 836 24.69 -14.5 5.8 85 -16.6 2.2 -93.5 -3.681
02:59 1007 29.74 836 24.69 -14.6 5.8 85 -16.6 2.1 -93.5 -3.681
03:00 1007 29.74 836 24.69 -14.6 5.8 85 -16.6 2.1 -93.5 -3.681
03:01 1007 29.74 836 24.69 -14.6 5.8 85 -16.6 2.1 -93.5 -3.681
03:02 1007 29.74 836 24.69 -14.6 5.8 84 -16.7 2 -93.5 -3.681
03:03 1007 29.74 836 24.69 -14.6 5.7 84 -16.7 1.9 -93.5 -3.681
03:04 1007 29.74 836 24.69 -14.6 5.7 85 -16.6 2.1 -93.5 -3.681
03:05 1007 29.74 836 24.69 -14.6 5.7 85 -16.6 2.1 -93.5 -3.681
03:06 1007 29.74 836 24.69 -14.6 5.7 85 -16.6 2.1 -93.5 -3.681
03:07 1007 29.74 836 24.69 -14.6 5.7 85 -16.6 2.1 -93.5 -3.681
03:08 1007 29.74 836 24.69 -14.6 5.7 85 -16.6 2.2 -93.5 -3.681
03:09 1007 29.74 836 24.69 -14.6 5.7 85 -16.6 2.1 -93.5 -3.681
03:10 1007 29.74 836 24.69 -14.7 5.6 85 -16.6 2.1 -93.5 -3.681
03:11 1007 29.74 836 24.69 -14.7 5.6 86 -16.6 2.2 -93.5 -3.681
03:12 1007 29.74 836 24.69 -14.7 5.6 85 -16.7 1.9 -93.5 -3.681
03:13 1007 29.74 836 24.69 -14.8 5.5 84 -16.9 1.6 -93.5 -3.681
03:14 1007 29.74 836 24.69 -14.9 5.2 85 -16.9 1.6 -93.5 -3.681
03:15 1007 29.74 836 24.69 -14.9 5.2 85 -16.9 1.7 -93.5 -3.681
03:16 1007 29.74 836 24.69 -14.9 5.2 85 -16.9 1.6 -93.5 -3.681
03:17 1007 29.74 836 24.69 -14.9 5.2 85 -16.9 1.7 -93.5 -3.681
03:18 1007 29.74 836 24.69 -14.9 5.1 85 -16.9 1.5 -93.5 -3.681
03:19 1007 29.74 836 24.69 -14.9 5.1 85 -17 1.4 -93.5 -3.681
03:20 1007 29.74 836 24.69 -15 5.1 85 -16.9 1.5 -93.5 -3.681
03:21 1007 29.74 836 24.69 -15 5.1 85 -16.9 1.6 -93.5 -3.681
03:22 1007 29.74 836 24.69 -15 5.1 85 -17 1.4 -93.5 -3.681
03:23 1007 29.74 836 24.69 -15 5 84 -17.1 1.3 -93.5 -3.681
03:24 1007 29.74 836 24.69 -15 4.9 84 -17.1 1.2 -93.5 -3.681
03:25 1007 29.74 836 24.69 -15.1 4.9 85 -17.1 1.2 -93.5 -3.681
03:26 1007 29.74 836 24.69 -15.1 4.9 85 -17 1.4 -93.5 -3.681
03:27 1007 29.74 836 24.69 -15.1 4.8 85 -17 1.3 -93.5 -3.681
03:28 1007 29.74 836 24.69 -15.1 4.9 86 -17 1.4 -93.5 -3.681
03:29 1007 29.74 836 24.69 -15.1 4.9 86 -17 1.4 -93.5 -3.681
03:30 1007 29.74 836 24.69 -15 4.9 86 -16.9 1.5 -93.5 -3.681
03:31 1007 29.74 836 24.69 -15.1 4.9 85 -17 1.3 -93.5 -3.681
03:32 1007 29.74 836 24.69 -15.1 4.9 85 -17.1 1.3 -93.5 -3.681
03:33 1007 29.74 836 24.69 -15.1 4.9 85 -17.1 1.3 -93.5 -3.681
03:34 1007 29.74 836 24.69 -15.1 4.7 85 -17.1 1.2 -93.5 -3.681
03:35 1007 29.74 836 24.69 -15.1 4.8 85 -17.1 1.3 -93.5 -3.681
03:36 1007 29.74 836 24.69 -15.1 4.7 85 -17.1 1.3 -93.5 -3.681
03:37 1007 29.74 836 24.69 -15.2 4.7 85 -17.1 1.2 -93.5 -3.681
03:38 1007 29.74 836 24.69 -15.2 4.7 86 -17 1.3 -93.5 -3.681
03:39 1007 29.74 836 24.69 -15.2 4.7 85 -17.2 1.1 -93.5 -3.681
03:40 1007 29.74 836 24.69 -15.2 4.6 85 -17.3 0.9 -93.5 -3.681
03:41 1007 29.74 836 24.69 -15.3 4.6 85 -17.3 0.9 -93.5 -3.681
03:42 1007 29.74 836 24.69 -15.3 4.5 86 -17.2 1 -93.5 -3.681
03:43 1007 29.74 836 24.69 -15.3 4.5 86 -17.1 1.2 -93.6 -3.685
03:44 1007 29.74 836 24.69 -15.2 4.6 86 -17.1 1.2 -93.6 -3.685
03:45 1007 29.74 836 24.69 -15.2 4.6 85 -17.2 1 -93.6 -3.685
03:46 1007 29.74 836 24.69 -15.3 4.6 85 -17.2 1 -93.6 -3.685
03:47 1007 29.74 836 24.69 -15.3 4.6 86 -17.1 1.1 -93.6 -3.685
03:48 1007 29.74 836 24.69 -15.2 4.7 86 -17 1.3 -93.6 -3.685
03:49 1007 29.74 836 24.69 -15.2 4.7 85 -17.1 1.2 -93.6 -3.685
03:50 1007 29.74 836 24.69 -15.1 4.8 85 -17.1 1.2 -93.6 -3.685
03:51 1007 29.74 836 24.69 -15.1 4.8 85 -17.1 1.2 -93.6 -3.685
03:52 1007 29.74 836 24.69 -15.1 4.8 85 -17.1 1.2 -93.6 -3.685
03:53 1007 29.74 836 24.69 -15.1 4.8 85 -17.2 1.1 -93.6 -3.685
03:54 1007 29.74 836 24.69 -15.1 4.8 85 -17.1 1.2 -93.6 -3.685
03:55 1007 29.74 836 24.69 -15.1 4.8 85 -17.1 1.2 -93.6 -3.685
03:56 1007 29.74 836 24.69 -15.1 4.7 85 -17.2 1.1 -93.6 -3.685
03:57 1007 29.74 836 24.69 -15.2 4.7 85 -17.2 1.1 -93.6 -3.685
03:58 1007 29.74 836 24.69 -15.1 4.7 85 -17.2 1.1 -93.6 -3.685
03:59 1007 29.74 837 24.72 -15.2 4.7 85 -17.2 1.1 -93.6 -3.685
04:00 1007 29.74 836 24.69 -15.2 4.7 84 -17.3 0.9 -93.6 -3.685
04:01 1007 29.74 836 24.69 -15.2 4.6 84 -17.4 0.7 -93.6 -3.685
04:02 1007 29.74 836 24.69 -15.3 4.5 84 -17.4 0.7 -93.6 -3.685
04:03 1007 29.74 836 24.69 -15.3 4.4 84 -17.4 0.7 -93.6 -3.685
04:04 1007 29.74 836 24.69 -15.3 4.5 85 -17.2 1 -93.6 -3.685
04:05 1007 29.74 836 24.69 -15.3 4.5 84 -17.3 0.8 -93.6 -3.685
04:06 1007 29.74 836 24.69 -15.3 4.5 84 -17.4 0.8 -93.6 -3.685
04:07 1007 29.74 836 24.69 -15.3 4.5 84 -17.4 0.7 -93.6 -3.685
04:08 1007 29.74 836 24.69 -15.3 4.5 85 -17.3 0.8 -93.6 -3.685
04:09 1007 29.74 836 24.69 -15.3 4.4 85 -17.3 0.8 -93.6 -3.685
04:10 1007 29.74 836 24.69 -15.3 4.5 85 -17.3 0.9 -93.6 -3.685
04:11 1007 29.74 836 24.69 -15.3 4.5 85 -17.3 0.9 -93.6 -3.685
04:12 1007 29.74 836 24.69 -15.3 4.4 85 -17.3 0.8 -93.6 -3.685
04:13 1007 29.74 836 24.69 -15.3 4.5 85 -17.3 0.9 -93.6 -3.685
04:14 1007 29.74 836 24.69 -15.3 4.5 85 -17.2 1 -93.6 -3.685
04:15 1007 29.74 836 24.69 -15.3 4.5 85 -17.2 1 -93.6 -3.685
04:16 1007 29.74 836 24.69 -15.3 4.5 85 -17.3 0.9 -93.6 -3.685
04:17 1007 29.74 836 24.69 -15.3 4.6 85 -17.3 0.9 -93.6 -3.685
04:18 1007 29.74 836 24.69 -15.3 4.6 85 -17.2 1 -93.6 -3.685
04:19 1007 29.74 837 24.72 -15.2 4.6 85 -17.3 0.9 -93.7 -3.689
04:20 1007 29.74 837 24.72 -15.3 4.6 85 -17.2 1.1 -93.7 -3.689
04:21 1007 29.74 837 24.72 -15.2 4.6 86 -17.1 1.2 -93.7 -3.689
04:22 1007 29.74 837 24.72 -15.2 4.7 85 -17.1 1.2 -93.7 -3.689
04:23 1007 29.74 837 24.72 -15.1 4.8 85 -17.1 1.1 -93.7 -3.689
04:24 1007 29.74 837 24.72 -15.2 4.7 84 -17.3 0.9 -93.7 -3.689
04:25 1007 29.74 837 24.72 -15.2 4.7 85 -17.2 1 -93.7 -3.689
04:26 1007 29.74 837 24.72 -15.2 4.7 85 -17.2 1.1 -93.7 -3.689
04:27 1007 29.74 837 24.72 -15.2 4.7 85 -17.1 1.2 -93.7 -3.689
04:28 1007 29.74 837 24.72 -15.1 4.8 85 -17.1 1.3 -93.7 -3.689
04:29 1007 29.74 837 24.72 -15.1 4.8 85 -17.2 1.1 -93.7 -3.689
04:30 1007 29.74 837 24.72 -15.2 4.7 85 -17.2 1.1 -93.7 -3.689
04:31 1007 29.74 836 24.69 -15.2 4.7 85 -17.2 1.1 -93.7 -3.689
04:32 1007 29.74 837 24.72 -15.2 4.7 85 -17.2 1.1 -93.7 -3.689
04:33 1007 29.74 836 24.69 -15.2 4.7 85 -17.2 1.1 -93.7 -3.689
04:34 1007 29.74 836 24.69 -15.1 4.8 85 -17.2 1.1 -93.7 -3.689
04:35 1007 29.74 837 24.72 -15.2 4.7 85 -17.2 1 -93.7 -3.689
04:36 1007 29.74 837 24.72 -15.1 4.8 85 -17.1 1.2 -93.7 -3.689
04:37 1007 29.74 836 24.69 -15.1 4.8 85 -17.1 1.2 -93.7 -3.689
04:38 1007 29.74 837 24.72 -15.1 4.8 85 -17.2 1.1 -93.7 -3.689
04:39 1007 29.74 836 24.69 -15.1 4.8 85 -17.1 1.1 -93.7 -3.689
04:40 1007 29.74 836 24.69 -15.1 4.8 85 -17.1 1.2 -93.7 -3.689
04:41 1007 29.74 837 24.72 -15.1 4.8 84 -17.2 1.1 -93.7 -3.689
04:42 1007 29.74 836 24.69 -15.1 4.8 85 -17.2 1.1 -93.7 -3.689
04:43 1007 29.74 836 24.69 -15.1 4.8 85 -17.1 1.1 -93.7 -3.689
04:44 1007 29.74 836 24.69 -15.1 4.8 85 -17.1 1.1 -93.7 -3.689
04:45 1007 29.74 836 24.69 -15.1 4.8 85 -17.2 1.1 -93.7 -3.689
04:46 1007 29.74 836 24.69 -15.1 4.9 85 -17.1 1.2 -93.7 -3.689
04:47 1007 29.74 836 24.69 -15.1 4.9 85 -17.1 1.3 -93.7 -3.689
04:48 1007 29.74 836 24.69 -15.1 4.9 85 -17.1 1.2 -93.7 -3.689
04:49 1007 29.74 836 24.69 -15 5 85 -17.1 1.3 -93.7 -3.689
04:50 1007 29.74 836 24.69 -15 5 84 -17.1 1.2 -93.7 -3.689
04:51 1007 29.74 836 24.69 -15 5 85 -17.1 1.3 -93.7 -3.689
04:52 1007 29.74 836 24.69 -15 5 85 -17 1.3 -93.7 -3.689
04:53 1007 29.74 836 24.69 -15 5.1 85 -17 1.4 -93.7 -3.689
04:54 1007 29.74 836 24.69 -14.9 5.1 85 -16.9 1.6 -93.7 -3.689
04:55 1007 29.74 836 24.69 -14.9 5.1 85 -16.9 1.6 -93.7 -3.689
04:56 1007 29.74 836 24.69 -14.9 5.2 85 -16.9 1.6 -93.7 -3.689
04:57 1007 29.74 836 24.69 -14.9 5.2 85 -16.8 1.7 -93.7 -3.689
04:58 1007 29.74 836 24.69 -14.8 5.3 86 -16.8 1.8 -93.7 -3.689
04:59 1007 29.74 836 24.69 -14.8 5.3 86 -16.7 1.9 -93.7 -3.689
05:00 1007 29.74 836 24.69 -14.8 5.3 86 -16.7 1.9 -93.7 -3.689
05:01 1007 29.74 836 24.69 -14.8 5.4 86 -16.6 2 -93.7 -3.689
05:02 1007 29.74 836 24.69 -14.7 5.5 86 -16.6 2.1 -93.7 -3.689
05:03 1007 29.74 836 24.69 -14.7 5.6 86 -16.5 2.2 -93.7 -3.689
05:04 1007 29.74 836 24.69 -14.6 5.7 86 -16.5 2.3 -93.7 -3.689
05:05 1007 29.74 836 24.69 -14.6 5.8 86 -16.4 2.4 -93.7 -3.689
05:06 1007 29.74 836 24.69 -14.5 5.9 86 -16.4 2.5 -93.7 -3.689
05:07 1007 29.74 836 24.69 -14.5 5.9 86 -16.4 2.5 -93.7 -3.689
05:08 1007 29.74 836 24.69 -14.5 6 86 -16.3 2.6 -93.7 -3.689
05:09 1007 29.74 836 24.69 -14.4 6.1 86 -16.2 2.8 -93.7 -3.689
05:10 1007 29.74 836 24.69 -14.3 6.3 86 -16.1 3 -93.7 -3.689
05:11 1007 29.74 836 24.69 -14.3 6.3 86 -16.1 3 -93.7 -3.689
05:12 1007 29.74 836 24.69 -14.2 6.4 86 -16.2 2.9 -93.7 -3.689
05:13 1007 29.74 836 24.69 -14.2 6.5 86 -16.1 3 -93.7 -3.689
05:14 1007 29.74 836 24.69 -14.2 6.5 86 -16 3.2 -93.7 -3.689
05:15 1007 29.74 836 24.69 -14.1 6.6 86 -16 3.3 -93.7 -3.689
05:16 1007 29.74 836 24.69 -14 6.7 86 -15.9 3.3 -93.7 -3.689
05:17 1007 29.74 836 24.69 -14 6.8 86 -15.9 3.3 -93.7 -3.689
05:18 1007 29.74 836 24.69 -13.9 7 85 -15.8 3.5 -93.7 -3.689
05:19 1007 29.74 836 24.69 -13.8 7.1 85 -15.8 3.6 -93.7 -3.689
05:20 1007 29.74 836 24.69 -13.8 7.1 85 -15.8 3.5 -93.7 -3.689
05:21 1007 29.74 836 24.69 -13.8 7.3 86 -15.7 3.8 -93.7 -3.689
05:22 1007 29.74 836 24.69 -13.7 7.4 86 -15.6 4 -93.7 -3.689
05:23 1007 29.74 836 24.69 -13.6 7.6 85 -15.5 4 -93.7 -3.689
05:24 1007 29.74 836 24.69 -13.5 7.7 85 -15.6 3.9 -93.7 -3.689
05:25 1007 29.74 836 24.69 -13.4 7.8 84 -15.6 3.9 -93.7 -3.689
05:26 1007 29.74 836 24.69 -13.4 7.9 84 -15.6 4 -93.7 -3.689
05:27 1007 29.74 836 24.69 -13.4 7.9 83 -15.7 3.8 -93.7 -3.689
05:28 1007 29.74 836 24.69 -13.4 7.9 83 -15.7 3.8 -93.7 -3.689
05:29 1007 29.74 836 24.69 -13.4 7.9 83 -15.7 3.8 -93.7 -3.689
05:30 1007 29.74 836 24.69 -13.4 7.9 83 -15.7 3.7 -93.7 -3.689
05:31 1007 29.74 836 24.69 -13.4 7.9 84 -15.6 3.9 -93.7 -3.689
05:32 1007 29.74 836 24.69 -13.4 7.9 83 -15.6 3.8 -93.7 -3.689
05:33 1007 29.74 836 24.69 -13.4 8 83 -15.7 3.8 -93.7 -3.689
05:34 1007 29.74 836 24.69 -13.4 7.9 83 -15.7 3.7 -93.7 -3.689
05:35 1007 29.74 836 24.69 -13.4 7.9 83 -15.7 3.7 -93.7 -3.689
05:36 1007 29.74 836 24.69 -13.4 7.9 83 -15.7 3.7 -93.7 -3.689
05:37 1007 29.74 836 24.69 -13.4 7.8 83 -15.7 3.7 -93.7 -3.689
05:38 1007 29.74 836 24.69 -13.4 7.9 83 -15.7 3.8 -93.7 -3.689
05:39 1007 29.74 836 24.69 -13.4 7.9 83 -15.6 3.9 -93.7 -3.689
05:40 1007 29.74 836 24.69 -13.4 7.9 83 -15.7 3.8 -93.7 -3.689
05:41 1007 29.74 836 24.69 -13.3 8 83 -15.6 3.8 -93.7 -3.689
05:42 1007 29.74 836 24.69 -13.4 8 83 -15.6 3.9 -93.7 -3.689
05:43 1007 29.74 836 24.69 -13.4 8 84 -15.6 4 -93.7 -3.689
05:44 1007 29.74 836 24.69 -13.3 8.1 83 -15.6 4 -93.7 -3.689
05:45 1007 29.74 836 24.69 -13.4 8 83 -15.7 3.7 -93.7 -3.689
05:46 1007 29.74 836 24.69 -13.4 8 83 -15.7 3.8 -93.7 -3.689
05:47 1007 29.74 836 24.69 -13.4 7.9 83 -15.6 3.9 -93.7 -3.689
05:48 1007 29.74 836 24.69 -13.4 7.8 83 -15.7 3.8 -93.7 -3.689
05:49 1007 29.74 836 24.69 -13.5 7.8 83 -15.7 3.7 -93.7 -3.689
05:50 1007 29.74 836 24.69 -13.5 7.7 84 -15.7 3.8 -93.7 -3.689
05:51 1007 29.74 836 24.69 -13.5 7.7 84 -15.6 3.9 -93.7 -3.689
05:52 1007 29.74 836 24.69 -13.5 7.8 84 -15.6 3.9 -93.7 -3.689
05:53 1007 29.74 836 24.69 -13.5 7.7 83 -15.8 3.6 -93.7 -3.689
05:54 1007 29.74 836 24.69 -13.5 7.7 83 -15.8 3.5 -93.7 -3.689
05:55 1007 29.74 836 24.69 -13.5 7.6 83 -15.8 3.5 -93.7 -3.689
05:56 1007 29.74 836 24.69 -13.5 7.7 83 -15.8 3.6 -93.7 -3.689
05:57 1007 29.74 836 24.69 -13.5 7.6 83 -15.9 3.5 -93.7 -3.689
05:58 1007 29.74 836 24.69 -13.5 7.6 84 -15.8 3.6 -93.7 -3.689
05:59 1007 29.74 836 24.69 -13.5 7.7 83 -15.8 3.6 -93.7 -3.689
06:00 1007 29.74 836 24.69 -13.5 7.6 83 -15.8 3.6 -93.7 -3.689
06:01 1007 29.74 836 24.69 -13.6 7.6 83 -15.9 3.4 -93.7 -3.689
06:02 1007 29.74 836 24.69 -13.6 7.6 83 -15.9 3.4 -93.7 -3.689
06:03 1007 29.74 836 24.69 -13.6 7.6 83 -15.8 3.5 -93.7 -3.689
06:04 1007 29.74 836 24.69 -13.6 7.5 83 -15.9 3.4 -93.7 -3.689
06:05 1007 29.74 836 24.69 -13.6 7.5 84 -15.8 3.5 -93.7 -3.689
06:06 1007 29.74 836 24.69 -13.6 7.5 83 -15.9 3.4 -93.7 -3.689
06:07 1007 29.74 836 24.69 -13.7 7.3 83 -16 3.2 -93.7 -3.689
06:08 1007 29.74 836 24.69 -13.8 7.3 83 -16 3.2 -93.7 -3.689
06:09 1007 29.74 836 24.69 -13.8 7.2 83 -16 3.2 -93.7 -3.689
06:10 1007 29.74 836 24.69 -13.8 7.1 83 -16.1 3.1 -93.7 -3.689
06:11 1007 29.74 836 24.69 -13.9 7.1 83 -16.2 2.9 -93.7 -3.689
06:12 1007 29.74 836 24.69 -13.9 6.9 83 -16.2 2.9 -93.7 -3.689
06:13 1007 29.74 836 24.69 -14 6.9 84 -16.2 2.9 -93.7 -3.689
06:14 1007 29.74 836 24.69 -14 6.9 84 -16.1 3 -93.7 -3.689
06:15 1007 29.74 836 24.69 -14 6.8 84 -16.2 2.9 -93.7 -3.689
06:16 1007 29.74 836 24.69 -14 6.8 84 -16.2 2.9 -93.7 -3.689
06:17 1007 29.74 836 24.69 -14 6.7 84 -16.2 2.8 -93.7 -3.689
06:18 1007 29.74 836 24.69 -14.1 6.6 84 -16.2 2.8 -93.7 -3.689
06:19 1007 29.74 836 24.69 -14.1 6.6 84 -16.2 2.8 -93.7 -3.689
06:20 1007 29.74 836 24.69 -14.1 6.6 84 -16.2 2.9 -93.7 -3.689
06:21 1007 29.74 836 24.69 -14.1 6.7 84 -16.2 2.8 -93.7 -3.689
06:22 1007 29.74 836 24.69 -14.1 6.6 84 -16.2 2.8 -93.7 -3.689
06:23 1007 29.74 836 24.69 -14.2 6.5 84 -16.4 2.6 -93.7 -3.689
06:24 1007 29.74 836 24.69 -14.2 6.4 84 -16.3 2.6 -93.7 -3.689
06:25 1007 29.74 836 24.69 -14.2 6.4 85 -16.2 2.8 -93.7 -3.689
06:26 1007 29.74 836 24.69 -14.2 6.4 84 -16.4 2.5 -93.7 -3.689
06:27 1007 29.74 836 24.69 -14.3 6.3 84 -16.5 2.4 -93.7 -3.689
06:28 1007 29.74 836 24.69 -14.3 6.2 84 -16.5 2.3 -93.7 -3.689
06:29 1007 29.74 836 24.69 -14.4 6.1 84 -16.6 2.1 -93.7 -3.689
06:30 1007 29.74 836 24.69 -14.4 6.1 84 -16.5 2.2 -93.7 -3.689
06:31 1007 29.74 836 24.69 -14.5 5.9 84 -16.6 2 -93.7 -3.689
06:32 1007 29.74 836 24.69 -14.5 5.9 84 -16.7 2 -93.7 -3.689
06:33 1007 29.74 836 24.69 -14.5 5.8 84 -16.7 2 -93.7 -3.689
06:34 1007 29.74 836 24.69 -14.5 5.8 85 -16.6 2.2 -93.7 -3.689
06:35 1007 29.74 836 24.69 -14.5 5.9 85 -16.6 2.2 -93.7 -3.689
06:36 1007 29.74 836 24.69 -14.5 5.9 84 -16.6 2.1 -93.7 -3.689
06:37 1007 29.74 836 24.69 -14.5 5.9 85 -16.5 2.3 -93.7 -3.689
06:38 1007 29.74 836 24.69 -14.5 6 85 -16.4 2.5 -93.7 -3.689
06:39 1007 29.74 836 24.69 -14.4 6.1 85 -16.4 2.5 -93.7 -3.689
06:40 1007 29.74 836 24.69 -14.4 6.2 85 -16.4 2.5 -93.7 -3.689
06:41 1007 29.74 836 24.69 -14.4 6.1 84 -16.4 2.4 -93.7 -3.689
06:42 1007 29.74 836 24.69 -14.3 6.2 84 -16.5 2.3 -93.7 -3.689
06:43 1007 29.74 836 24.69 -14.3 6.2 85 -16.4 2.5 -93.7 -3.689
06:44 1007 29.74 836 24.69 -14.3 6.3 85 -16.3 2.7 -93.7 -3.689
06:45 1007 29.74 836 24.69 -14.2 6.4 85 -16.2 2.8 -93.7 -3.689
06:46 1007 29.74 836 24.69 -14.2 6.5 85 -16.1 3 -93.7 -3.689
06:47 1007 29.74 836 24.69 -14.1 6.6 85 -16.1 3.1 -93.7 -3.689
06:48 1007 29.74 836 24.69 -14 6.7 85 -16 3.2 -93.7 -3.689
06:49 1007 29.74 836 24.69 -14 6.8 85 -16 3.2 -93.7 -3.689
06:50 1007 29.74 836 24.69 -13.9 7 85 -15.9 3.3 -93.7 -3.689
06:51 1007 29.74 836 24.69 -13.9 7 85 -15.9 3.3 -93.7 -3.689
06:52 1007 29.74 836 24.69 -13.8 7.1 85 -15.9 3.4 -93.7 -3.689
06:53 1007 29.74 836 24.69 -13.8 7.1 84 -15.9 3.4 -93.7 -3.689
06:54 1007 29.74 836 24.69 -13.8 7.2 85 -15.8 3.5 -93.7 -3.689
06:55 1007 29.74 836 24.69 -13.7 7.4 85 -15.7 3.7 -93.7 -3.689
06:56 1007 29.74 836 24.69 -13.6 7.5 85 -15.7 3.8 -93.7 -3.689
06:57 1007 29.74 836 24.69 -13.6 7.6 84 -15.7 3.8 -93.7 -3.689
06:58 1007 29.74 836 24.69 -13.5 7.7 85 -15.6 4 -93.7 -3.689
06:59 1007 29.74 836 24.69 -13.4 7.9 85 -15.5 4.1 -93.7 -3.689
07:00 1007 29.74 836 24.69 -13.3 8 85 -15.4 4.3 -93.7 -3.689
07:01 1007 29.74 836 24.69 -13.3 8.1 85 -15.4 4.4 -93.7 -3.689
07:02 1007 29.74 836 24.69 -13.3 8.2 84 -15.4 4.3 -93.7 -3.689
07:03 1007 29.74 836 24.69 -13.2 8.3 84 -15.2 4.6 -93.7 -3.689
07:04 1007 29.74 836 24.69 -13.1 8.5 85 -15.1 4.8 -93.7 -3.689
07:05 1007 29.74 836 24.69 -13 8.6 85 -14.9 5.1 -93.7 -3.689
07:06 1007 29.74 836 24.69 -12.8 8.9 86 -14.7 5.5 -93.7 -3.689
07:07 1007 29.74 836 24.69 -12.6 9.3 86 -14.4 6 -93.7 -3.689
07:08 1007 29.74 836 24.69 -12.4 9.6 86 -14.3 6.3 -93.7 -3.689
07:09 1007 29.74 836 24.69 -12.3 9.9 86 -14.2 6.5 -93.7 -3.689
07:10 1007 29.74 836 24.69 -12.1 10.3 86 -13.9 6.9 -93.7 -3.689
07:11 1007 29.74 836 24.69 -11.8 10.7 85 -13.9 7 -93.7 -3.689
07:12 1007 29.74 836 24.69 -11.8 10.9 84 -13.9 7 -93.7 -3.689
07:13 1007 29.74 836 24.69 -11.6 11 85 -13.7 7.4 -93.7 -3.689
07:14 1007 29.74 836 24.69 -11.6 11.2 85 -13.6 7.6 -93.7 -3.689
07:15 1007 29.74 836 24.69 -11.5 11.3 85 -13.5 7.6 -93.7 -3.689
07:16 1007 29.74 836 24.69 -11.4 11.5 85 -13.5 7.7 -93.7 -3.689
07:17 1007 29.74 836 24.69 -11.3 11.6 84 -13.5 7.7 -93.7 -3.689
07:18 1007 29.74 836 24.69 -11.3 11.7 84 -13.4 7.8 -93.7 -3.689
07:19 1007 29.74 836 24.69 -11.3 11.8 84 -13.4 7.9 -93.7 -3.689
07:20 1007 29.74 836 24.69 -11.2 11.8 85 -13.3 8.1 -93.7 -3.689
07:21 1007 29.74 836 24.69 -11.1 12.1 85 -13.1 8.4 -93.7 -3.689
07:22 1007 29.74 836 24.69 -10.9 12.3 85 -13 8.5 -93.7 -3.689
07:23 1007 29.74 836 24.69 -10.8 12.5 84 -13 8.7 -93.7 -3.689
07:24 1007 29.74 836 24.69 -10.8 12.6 84 -13 8.6 -93.7 -3.689
07:25 1007 29.74 836 24.69 -10.7 12.7 83 -13.1 8.5 -93.7 -3.689
07:26 1007 29.74 836 24.69 -10.8 12.6 82 -13.2 8.2 -93.7 -3.689
07:27 1007 29.74 836 24.69 -10.8 12.6 82 -13.3 8.1 -93.7 -3.689
07:28 1007 29.74 836 24.69 -10.9 12.5 82 -13.4 7.9 -93.7 -3.689
07:29 1007 29.74 836 24.69 -10.9 12.4 82 -13.4 7.9 -93.7 -3.689
07:30 1007 29.74 836 24.69 -11 12.3 82 -13.4 7.8 -93.7 -3.689
07:31 1007 29.74 836 24.69 -11 12.3 82 -13.4 7.9 -93.7 -3.689
07:32 1007 29.74 836 24.69 -11 12.2 83 -13.4 7.8 -93.7 -3.689
07:33 1007 29.74 836 24.69 -11 12.1 83 -13.4 7.8 -93.7 -3.689
07:34 1007 29.74 836 24.69 -11 12.2 83 -13.4 7.9 -93.7 -3.689
07:35 1007 29.74 836 24.69 -11 12.3 83 -13.4 8 -93.7 -3.689
07:36 1007 29.74 836 24.69 -10.9 12.3 83 -13.3 8.1 -93.7 -3.689
07:37 1007 29.74 836 24.69 -10.9 12.4 83 -13.3 8.1 -93.7 -3.689
07:38 1007 29.74 836 24.69 -10.9 12.4 83 -13.3 8.1 -93.6 -3.685
07:39 1007 29.74 836 24.69 -10.8 12.5 83 -13.2 8.3 -93.6 -3.685
07:40 1007 29.74 836 24.69 -10.9 12.5 83 -13.2 8.3 -93.6 -3.685
07:41 1007 29.74 836 24.69 -10.9 12.5 83 -13.2 8.2 -93.6 -3.685
07:42 1007 29.74 836 24.69 -10.9 12.5 83 -13.2 8.2 -93.6 -3.685
07:43 1007 29.74 836 24.69 -10.8 12.5 83 -13.1 8.4 -93.6 -3.685
07:44 1007 29.74 836 24.69 -10.8 12.5 84 -13 8.5 -93.6 -3.685
07:45 1007 29.74 836 24.69 -10.7 12.7 85 -12.8 8.9 -93.6 -3.685
07:46 1007 29.74 836 24.69 -10.5 13.1 85 -12.6 9.3 -93.6 -3.685
07:47 1007 29.74 836 24.69 -10.4 13.4 85 -12.5 9.6 -93.6 -3.685
07:48 1007 29.74 836 24.69 -10.2 13.6 85 -12.3 9.8 -93.6 -3.685
07:49 1007 29.74 836 24.69 -10.1 13.9 84 -12.3 9.9 -93.6 -3.685
07:50 1007 29.74 836 24.69 -10 14 84 -12.2 10 -93.6 -3.685
07:51 1007 29.74 836 24.69 -10 14.1 84 -12.2 10.1 -93.6 -3.685
07:52 1007 29.74 836 24.69 -9.9 14.1 84 -12.2 10.1 -93.6 -3.685
07:53 1007 29.74 836 24.69 -9.9 14.2 85 -11.9 10.5 -93.6 -3.685
07:54 1007 29.74 836 24.69 -9.8 14.5 84 -11.9 10.6 -93.6 -3.685
07:55 1007 29.74 836 24.69 -9.7 14.5 84 -12 10.4 -93.6 -3.685
07:56 1007 29.74 836 24.69 -9.7 14.5 83 -12.1 10.3 -93.6 -3.685
07:57 1007 29.74 836 24.69 -9.7 14.5 82 -12.2 10 -93.6 -3.685
07:58 1007 29.74 836 24.69 -9.8 14.4 82 -12.4 9.8 -93.6 -3.685
07:59 1007 29.74 836 24.69 -9.8 14.3 81 -12.4 9.6 -93.6 -3.685
08:00 1007 29.74 836 24.69 -9.9 14.3 82 -12.3 9.8 -93.6 -3.685
08:01 1007 29.74 836 24.69 -9.8 14.3 83 -12.3 9.9 -93.6 -3.685
08:02 1007 29.74 836 24.69 -9.8 14.4 82 -12.3 9.8 -93.6 -3.685
08:03 1007 29.74 836 24.69 -9.8 14.3 83 -12.1 10.1 -93.5 -3.681
08:04 1007 29.74 836 24.69 -9.8 14.4 80 -12.6 9.3 -93.5 -3.681
08:05 1007 29.74 836 24.69 -9.9 14.2 80 -12.8 9 -93.5 -3.681
08:06 1007 29.74 836 24.69 -10.1 13.9 81 -12.8 8.9 -93.6 -3.685
08:07 1007 29.74 836 24.69 -10.1 13.8 81 -12.8 9 -93.6 -3.685
08:08 1007 29.74 836 24.69 -10.2 13.7 82 -12.8 9 -93.6 -3.685
08:09 1007 29.74 836 24.69 -10.2 13.6 82 -12.8 9 -93.6 -3.685
08:10 1007 29.74 836 24.69 -10.2 13.6 82 -12.8 9 -93.6 -3.685
08:11 1007 29.74 836 24.69 -10.3 13.5 82 -12.7 9.1 -93.6 -3.685
08:12 1007 29.74 836 24.69 -10.3 13.6 82 -12.7 9.1 -93.6 -3.685
08:13 1007 29.74 836 24.69 -10.2 13.7 83 -12.6 9.3 -93.6 -3.685
08:14 1007 29.74 836 24.69 -10.2 13.7 83 -12.5 9.5 -93.5 -3.681
08:15 1007 29.74 836 24.69 -10.1 13.8 83 -12.4 9.6 -93.5 -3.681
08:16 1007 29.74 836 24.69 -10 13.9 83 -12.3 9.8 -93.5 -3.681
08:17 1007 29.74 836 24.69 -10 14 83 -12.3 9.9 -93.5 -3.681
08:18 1007 29.74 836 24.69 -9.9 14.1 84 -12.1 10.2 -93.5 -3.681
08:19 1007 29.74 836 24.69 -9.8 14.4 85 -11.8 10.7 -93.5 -3.681
08:20 1007 29.74 836 24.69 -9.6 14.7 85 -11.7 11 -93.5 -3.681
08:21 1007 29.74 836 24.69 -9.5 14.9 84 -11.7 11 -93.5 -3.681
08:22 1007 29.74 836 24.69 -9.3 15.2 83 -11.7 11 -93.5 -3.681
08:23 1007 29.74 836 24.69 -9.3 15.4 83 -11.7 10.9 -93.5 -3.681
08:24 1007 29.74 836 24.69 -9.2 15.5 82 -11.7 11 -93.5 -3.681
08:25 1007 29.74 836 24.69 -9.1 15.7 82 -11.6 11.1 -93.5 -3.681
08:26 1007 29.74 836 24.69 -9 15.7 82 -11.6 11.1 -93.5 -3.681
08:27 1007 29.74 836 24.69 -8.9 15.9 82 -11.4 11.4 -93.5 -3.681
08:28 1007 29.74 836 24.69 -8.9 16 83 -11.3 11.6 -93.5 -3.681
08:29 1007 29.74 836 24.69 -8.8 16.2 82 -11.3 11.7 -93.5 -3.681
08:30 1007 29.74 836 24.69 -8.8 16.2 81 -11.4 11.4 -93.5 -3.681
08:31 1007 29.74 836 24.69 -8.9 16.1 79 -11.9 10.6 -93.5 -3.681
08:32 1007 29.74 836 24.69 -9 15.8 78 -12.1 10.2 -93.5 -3.681
08:33 1007 29.74 836 24.69 -9.1 15.6 78 -12.3 9.9 -93.5 -3.681
08:34 1007 29.74 836 24.69 -9.2 15.4 79 -12.2 10.1 -93.5 -3.681
08:35 1007 29.74 836 24.69 -9.3 15.3 79 -12.2 10 -93.5 -3.681
08:36 1007 29.74 836 24.69 -9.4 15.2 79 -12.4 9.7 -93.5 -3.681
08:37 1007 29.74 836 24.69 -9.4 15.1 80 -12.2 10 -93.5 -3.681
08:38 1007 29.74 836 24.69 -9.5 15 81 -12.1 10.2 -93.5 -3.681
08:39 1007 29.74 836 24.69 -9.4 15 81 -12.1 10.3 -93.5 -3.681
08:40 1007 29.74 836 24.69 -9.4 15.1 81 -12 10.4 -93.5 -3.681
08:41 1007 29.74 836 24.69 -9.4 15.2 82 -12 10.5 -93.5 -3.681
08:42 1007 29.74 836 24.69 -9.3 15.2 82 -11.9 10.6 -93.5 -3.681
08:43 1007 29.74 836 24.69 -9.2 15.4 82 -11.7 10.9 -93.4 -3.677
08:44 1007 29.74 836 24.69 -9.2 15.5 83 -11.6 11.2 -93.4 -3.677
08:45 1007 29.74 836 24.69 -9 15.7 83 -11.4 11.5 -93.4 -3.677
08:46 1007 29.74 836 24.69 -8.9 15.9 83 -11.3 11.7 -93.5 -3.681
08:47 1007 29.74 836 24.69 -8.8 16.1 83 -11.2 11.9 -93.5 -3.681
08:48 1007 29.74 836 24.69 -8.7 16.4 83 -11 12.1 -93.5 -3.681
08:49 1007 29.74 836 24.69 -8.6 16.6 83 -11 12.2 -93.5 -3.681
08:50 1007 29.74 836 24.69 -8.5 16.8 82 -11 12.2 -93.5 -3.681
08:51 1007 29.74 836 24.69 -8.4 16.9 83 -10.9 12.5 -93.5 -3.681
08:52 1007 29.74 836 24.69 -8.4 17 83 -10.7 12.7 -93.5 -3.681
08:53 1007 29.74 836 24.69 -8.2 17.2 83 -10.6 12.9 -93.4 -3.677
08:54 1007 29.74 836 24.69 -8.1 17.5 83 -10.4 13.3 -93.4 -3.677
08:55 1007 29.74 836 24.69 -7.9 17.8 83 -10.3 13.4 -93.4 -3.677
08:56 1007 29.74 836 24.69 -7.8 18.1 83 -10.2 13.7 -93.4 -3.677
08:57 1007 29.74 836 24.69 -7.6 18.3 83 -10 13.9 -93.4 -3.677
08:58 1007 29.74 836 24.69 -7.4 18.6 83 -9.8 14.3 -93.4 -3.677
08:59 1007 29.74 836 24.69 -7.3 18.9 84 -9.6 14.7 -93.4 -3.677
09:00 1007 29.74 836 24.69 -7.1 19.3 83 -9.5 14.8 -93.4 -3.677
09:01 1007 29.74 836 24.69 -6.9 19.6 82 -9.5 14.9 -93.4 -3.677
09:02 1007 29.74 836 24.69 -6.8 19.8 82 -9.3 15.3 -93.4 -3.677
09:03 1007 29.74 836 24.69 -6.6 20.2 82 -9.1 15.6 -93.4 -3.677
09:04 1007 29.74 836 24.69 -6.4 20.5 82 -9 15.7 -93.4 -3.677
09:05 1007 29.74 836 24.69 -6.3 20.6 81 -9 15.8 -93.3 -3.673
09:06 1007 29.74 836 24.69 -6.2 20.9 80 -9 15.7 -93.3 -3.673
09:07 1007 29.74 836 24.69 -6 21.2 80 -8.9 16 -93.3 -3.673
09:08 1007 29.74 836 24.69 -5.9 21.4 80 -8.8 16.1 -93.3 -3.673
09:09 1007 29.74 836 24.69 -5.8 21.6 80 -8.7 16.3 -93.3 -3.673
09:10 1007 29.74 836 24.69 -5.7 21.7 80 -8.7 16.3 -93.3 -3.673
09:11 1007 29.74 836 24.69 -5.7 21.7 79 -8.8 16.2 -93.3 -3.673
09:12 1007 29.74 836 24.69 -5.7 21.8 79 -8.7 16.3 -93.3 -3.673
09:13 1007 29.74 836 24.69 -5.6 22 79 -8.7 16.3 -93.3 -3.673
09:14 1007 29.74 836 24.69 -5.5 22.1 79 -8.7 16.4 -93.3 -3.673
09:15 1007 29.74 836 24.69 -5.5 22.1 79 -8.6 16.5 -93.3 -3.673
09:16 1007 29.74 836 24.69 -5.5 22.1 79 -8.6 16.6 -93.3 -3.673
09:17 1007 29.74 836 24.69 -5.4 22.3 79 -8.6 16.6 -93.3 -3.673
09:18 1007 29.74 836 24.69 -5.3 22.4 79 -8.5 16.7 -93.3 -3.673
09:19 1007 29.74 836 24.69 -5.2 22.6 78 -8.5 16.7 -93.3 -3.673
09:20 1007 29.74 836 24.69 -5.1 22.7 78 -8.4 16.9 -93.3 -3.673
09:21 1007 29.74 836 24.69 -5 22.9 78 -8.2 17.2 -93.3 -3.673
09:22 1007 29.74 836 24.69 -4.9 23.1 78 -8.2 17.3 -93.3 -3.673
09:23 1007 29.74 836 24.69 -4.9 23.3 78 -8.2 17.3 -93.3 -3.673
09:24 1007 29.74 836 24.69 -4.8 23.5 78 -8.1 17.5 -93.3 -3.673
09:25 1007 29.74 836 24.69 -4.6 23.6 77 -8 17.6 -93.3 -3.673
09:26 1007 29.74 836 24.69 -4.6 23.8 77 -8 17.6 -93.3 -3.673
09:27 1007 29.74 836 24.69 -4.5 23.9 76 -8.1 17.5 -93.3 -3.673
09:28 1007 29.74 836 24.69 -4.4 24.1 76 -8.1 17.5 -93.3 -3.673
09:29 1007 29.74 836 24.69 -4.3 24.2 76 -8 17.6 -93.3 -3.673
09:30 1007 29.74 836 24.69 -4.3 24.3 76 -7.9 17.8 -93.2 -3.669
09:31 1007 29.74 836 24.69 -4.2 24.4 76 -7.9 17.7 -93.2 -3.669
09:32 1007 29.74 836 24.69 -4.3 24.3 76 -7.9 17.8 -93.2 -3.669
09:33 1007 29.74 836 24.69 -4.3 24.3 77 -7.8 18 -93.2 -3.669
09:34 1007 29.74 836 24.69 -4.3 24.3 77 -7.7 18.1 -93.2 -3.669
09:35 1007 29.74 836 24.69 -4.2 24.4 77 -7.6 18.3 -93.2 -3.669
09:36 1007 29.74 836 24.69 -4.2 24.4 77 -7.6 18.3 -93.2 -3.669
09:37 1007 29.74 836 24.69 -4.1 24.6 77 -7.6 18.2 -93.2 -3.669
09:38 1007 29.74 836 24.69 -4 24.7 76 -7.7 18.1 -93.2 -3.669
09:39 1007 29.74 836 24.69 -3.9 25 75 -7.8 18 -93.2 -3.669
09:40 1007 29.74 836 24.69 -3.8 25.1 74 -7.8 17.9 -93.2 -3.669
09:41 1007 29.74 836 24.69 -3.7 25.3 74 -7.7 18.1 -93.2 -3.669
09:42 1007 29.74 836 24.69 -3.5 25.7 74 -7.5 18.5 -93.2 -3.669
09:43 1007 29.74 836 24.69 -3.4 25.8 73 -7.5 18.5 -93.2 -3.669
09:44 1007 29.74 836 24.69 -3.4 25.9 73 -7.5 18.5 -93.1 -3.665
09:45 1007 29.74 836 24.69 -3.3 26 73 -7.6 18.3 -93.1 -3.665
09:46 1007 29.74 836 24.69 -3.3 26.1 73 -7.4 18.6 -93.1 -3.665
09:47 1007 29.74 836 24.69 -3.2 26.2 73 -7.5 18.6 -93.1 -3.665
09:48 1007 29.74 836 24.69 -3.1 26.4 73 -7.3 18.9 -93.1 -3.665
09:49 1007 29.74 836 24.69 -3 26.5 72 -7.4 18.6 -93.1 -3.665
09:50 1007 29.74 836 24.69 -3 26.7 73 -7.2 19.1 -93.1 -3.665
09:51 1007 29.74 836 24.69 -2.9 26.8 72 -7.2 19 -93.1 -3.665
09:52 1007 29.74 836 24.69 -2.8 27 72 -7.2 19.1 -93.1 -3.665
09:53 1006 29.71 836 24.69 -2.7 27.2 72 -7.1 19.2 -93.1 -3.665
09:54 1007 29.74 836 24.69 -2.6 27.3 72 -7 19.4 -93.1 -3.665
09:55 1007 29.74 836 24.69 -2.4 27.6 71 -7 19.3 -93.1 -3.665
09:56 1007 29.74 836 24.69 -2.4 27.7 71 -7 19.4 -93 -3.661
09:57 1007 29.74 836 24.69 -2.3 27.8 71 -6.9 19.6 -93 -3.661
09:58 1007 29.74 836 24.69 -2.3 27.8 71 -6.9 19.7 -93 -3.661
09:59 1007 29.74 836 24.69 -2.3 27.8 71 -6.9 19.7 -93 -3.661
10:00 1007 29.74 836 24.69 -2.3 27.9 71 -6.8 19.8 -93 -3.661
10:01 1007 29.74 836 24.69 -2.2 28 72 -6.6 20.1 -93 -3.661
10:02 1007 29.74 836 24.69 -2.1 28.1 71 -6.7 20 -93 -3.661
10:03 1007 29.74 836 24.69 -2.1 28.3 70 -6.8 19.8 -93 -3.661
10:04 1007 29.74 836 24.69 -2 28.4 70 -6.7 19.9 -93 -3.661
10:05 1007 29.74 836 24.69 -2 28.5 70 -6.8 19.8 -93 -3.661
10:06 1007 29.74 836 24.69 -1.9 28.6 70 -6.7 19.9 -93 -3.661
10:07 1007 29.74 836 24.69 -1.8 28.7 69 -6.8 19.8 -93 -3.661
10:08 1007 29.74 836 24.69 -1.8 28.8 70 -6.6 20.2 -93 -3.661
10:09 1007 29.74 836 24.69 -1.6 29 68 -6.8 19.7 -93 -3.661
10:10 1007 29.74 836 24.69 -1.5 29.2 68 -6.8 19.8 -92.9 -3.657
10:11 1007 29.74 836 24.69 -1.4 29.4 68 -6.6 20.2 -92.9 -3.657
10:12 1007 29.74 836 24.69 -1.3 29.7 68 -6.5 20.2 -92.9 -3.657
10:13 1007 29.74 836 24.69 -1.1 29.9 65 -6.8 19.7 -92.9 -3.657
10:14 1007 29.74 836 24.69 -1.1 30.1 65 -6.8 19.7 -92.9 -3.657
10:15 1007 29.74 836 24.69 -1 30.3 66 -6.5 20.4 -92.9 -3.657
10:16 1007 29.74 836 24.69 -0.9 30.4 66 -6.5 20.3 -92.9 -3.657
10:17 1007 29.74 836 24.69 -0.8 30.6 66 -6.4 20.4 -92.9 -3.657
10:18 1007 29.74 836 24.69 -0.7 30.8 63 -6.8 19.8 -92.9 -3.657
10:19 1007 29.74 836 24.69 -0.6 30.9 63 -6.8 19.7 -92.9 -3.657
10:20 1007 29.74 836 24.69 -0.5 31 63 -6.7 20 -92.9 -3.657
10:21 1007 29.74 836 24.69 -0.5 31.2 64 -6.5 20.3 -92.8 -3.654
10:22 1007 29.74 836 24.69 -0.4 31.2 62 -6.8 19.8 -92.8 -3.654
10:23 1007 29.74 836 24.69 -0.4 31.3 62 -6.8 19.8 -92.8 -3.654
10:24 1007 29.74 836 24.69 -0.4 31.3 62 -6.8 19.8 -92.8 -3.654
10:25 1007 29.74 836 24.69 -0.4 31.3 63 -6.7 20 -92.8 -3.654
10:26 1007 29.74 836 24.69 -0.4 31.3 64 -6.5 20.4 -92.8 -3.654
10:27 1007 29.74 836 24.69 -0.4 31.2 65 -6.2 20.8 -92.8 -3.654
10:28 1007 29.74 836 24.69 -0.4 31.3 65 -6.2 20.9 -92.8 -3.654
10:29 1007 29.74 836 24.69 -0.4 31.3 64 -6.4 20.5 -92.8 -3.654
10:30 1007 29.74 836 24.69 -0.4 31.3 64 -6.3 20.7 -92.8 -3.654
10:31 1007 29.74 836 24.69 -0.3 31.4 64 -6.4 20.5 -92.8 -3.654
10:32 1007 29.74 836 24.69 -0.4 31.3 64 -6.3 20.7 -92.7 -3.65
10:33 1007 29.74 836 24.69 -0.4 31.3 64 -6.4 20.4 -92.7 -3.65
10:34 1007 29.74 836 24.69 -0.4 31.2 65 -6.3 20.7 -92.7 -3.65
10:35 1007 29.74 836 24.69 -0.4 31.2 64 -6.5 20.3 -92.7 -3.65
10:36 1007 29.74 836 24.69 -0.5 31.1 64 -6.5 20.3 -92.7 -3.65
10:37 1007 29.74 836 24.69 -0.6 31 64 -6.6 20.2 -92.7 -3.65
10:38 1007 29.74 836 24.69 -0.6 31 64 -6.6 20.1 -92.7 -3.65
10:39 1007 29.74 836 24.69 -0.7 30.8 64 -6.5 20.2 -92.7 -3.65
10:40 1007 29.74 836 24.69 -0.7 30.8 64 -6.6 20.1 -92.7 -3.65
10:41 1007 29.74 836 24.69 -0.7 30.7 63 -7 19.5 -92.7 -3.65
10:42 1007 29.74 836 24.69 -0.8 30.6 64 -6.8 19.8 -92.7 -3.65
10:43 1007 29.74 836 24.69 -0.8 30.5 63 -6.9 19.5 -92.7 -3.65
10:44 1007 29.74 836 24.69 -0.9 30.5 64 -6.9 19.6 -92.7 -3.65
10:45 1007 29.74 836 24.69 -0.9 30.5 64 -6.8 19.8 -92.7 -3.65
10:46 1006 29.71 836 24.69 -0.8 30.5 65 -6.6 20.1 -92.7 -3.65
10:47 1006 29.71 836 24.69 -0.8 30.6 64 -6.8 19.8 -92.7 -3.65
10:48 1006 29.71 836 24.69 -0.8 30.6 64 -6.7 19.9 -92.7 -3.65
10:49 1006 29.71 836 24.69 -0.7 30.7 64 -6.7 20 -92.6 -3.646
10:50 1006 29.71 836 24.69 -0.7 30.8 64 -6.6 20.1 -92.6 -3.646
10:51 1006 29.71 836 24.69 -0.6 31 63 -6.7 20 -92.6 -3.646
10:52 1006 29.71 836 24.69 -0.5 31.1 63 -6.6 20.1 -92.6 -3.646
10:53 1006 29.71 836 24.69 -0.5 31.2 64 -6.6 20.2 -92.6 -3.646
10:54 1006 29.71 836 24.69 -0.4 31.3 62 -6.7 19.9 -92.6 -3.646
10:55 1006 29.71 836 24.69 -0.4 31.4 62 -6.7 19.9 -92.6 -3.646
10:56 1006 29.71 835 24.66 -0.4 31.3 63 -6.5 20.3 -92.6 -3.646
10:57 1006 29.71 835 24.66 -0.3 31.4 62 -6.8 19.7 -92.6 -3.646
10:58 1006 29.71 835 24.66 -0.4 31.4 63 -6.7 20 -92.6 -3.646
10:59 1006 29.71 835 24.66 -0.3 31.4 63 -6.5 20.3 -92.6 -3.646
11:00 1006 29.71 835 24.66 -0.3 31.5 63 -6.4 20.5 -92.5 -3.642
11:01 1006 29.71 835 24.66 -0.2 31.6 62 -6.7 19.9 -92.5 -3.642
11:02 1006 29.71 835 24.66 -0.1 31.7 62 -6.7 20 -92.5 -3.642
11:03 1006 29.71 835 24.66 -0.1 31.8 61 -6.7 20 -92.5 -3.642
11:04 1006 29.71 835 24.66 -0.1 31.8 62 -6.6 20.1 -92.5 -3.642
11:05 1006 29.71 835 24.66 -0.1 31.9 63 -6.3 20.6 -92.5 -3.642
11:06 1006 29.71 835 24.66 -0 31.9 63 -6.3 20.6 -92.5 -3.642
11:07 1006 29.71 835 24.66 -0 31.9 62 -6.4 20.4 -92.5 -3.642
11:08 1006 29.71 835 24.66 -0 31.9 62 -6.4 20.5 -92.5 -3.642
11:09 1006 29.71 835 24.66 -0 32 61 -6.6 20.1 -92.5 -3.642
11:10 1006 29.71 835 24.66 -0 32 63 -6.3 20.7 -92.5 -3.642
11:11 1006 29.71 835 24.66 0 32 62 -6.4 20.5 -92.5 -3.642
11:12 1006 29.71 835 24.66 0 32.1 61 -6.5 20.3 -92.5 -3.642
11:13 1006 29.71 835 24.66 0.1 32.2 62 -6.4 20.5 -92.5 -3.642
11:14 1006 29.71 835 24.66 0.2 32.3 60 -6.6 20.1 -92.4 -3.638
11:15 1006 29.71 835 24.66 0.3 32.5 60 -6.6 20.1 -92.4 -3.638
11:16 1006 29.71 835 24.66 0.4 32.7 60 -6.4 20.5 -92.4 -3.638
11:17 1006 29.71 835 24.66 0.5 32.9 60 -6.4 20.5 -92.4 -3.638
11:18 1006 29.71 835 24.66 0.6 33.1 59 -6.6 20.2 -92.3 -3.634
11:19 1006 29.71 835 24.66 0.7 33.3 58 -6.6 20 -92.3 -3.634
11:20 1006 29.71 835 24.66 0.7 33.3 58 -6.7 20 -92.4 -3.638
11:21 1006 29.71 835 24.66 0.7 33.3 58 -6.5 20.3 -92.4 -3.638
11:22 1006 29.71 835 24.66 0.8 33.4 58 -6.6 20.1 -92.4 -3.638
11:23 1006 29.71 835 24.66 0.8 33.4 59 -6.4 20.4 -92.3 -3.634
11:24 1006 29.71 835 24.66 0.8 33.4 60 -6.2 20.9 -92.3 -3.634
11:25 1006 29.71 835 24.66 0.8 33.5 58 -6.5 20.3 -92.3 -3.634
11:26 1006 29.71 835 24.66 0.8 33.5 59 -6.3 20.7 -92.3 -3.634
11:27 1006 29.71 835 24.66 0.8 33.5 59 -6.3 20.6 -92.3 -3.634
11:28 1006 29.71 835 24.66 0.7 33.3 59 -6.3 20.7 -92.3 -3.634
11:29 1006 29.71 835 24.66 0.7 33.2 60 -6.2 20.9 -92.3 -3.634
11:30 1006 29.71 835 24.66 0.7 33.3 59 -6.5 20.4 -92.3 -3.634
11:31 1006 29.71 835 24.66 0.7 33.3 59 -6.5 20.4 -92.3 -3.634
11:32 1006 29.71 835 24.66 0.8 33.4 60 -6.2 20.9 -92.3 -3.634
11:33 1006 29.71 835 24.66 0.7 33.2 60 -6.3 20.7 -92.3 -3.634
11:34 1006 29.71 835 24.66 0.7 33.2 59 -6.4 20.5 -92.3 -3.634
11:35 1006 29.71 835 24.66 0.7 33.2 60 -6.3 20.6 -92.3 -3.634
11:36 1006 29.71 835 24.66 0.7 33.3 59 -6.4 20.5 -92.2 -3.63
11:37 1006 29.71 835 24.66 0.7 33.3 59 -6.4 20.6 -92.2 -3.63
11:38 1006 29.71 835 24.66 0.7 33.3 60 -6.2 20.8 -92.2 -3.63
11:39 1005 29.68 835 24.66 0.7 33.2 60 -6.2 20.9 -92.3 -3.634
11:40 1005 29.68 835 24.66 0.7 33.3 59 -6.4 20.4 -92.3 -3.634
11:41 1005 29.68 835 24.66 0.8 33.4 60 -6.1 21 -92.2 -3.63
11:42 1006 29.71 835 24.66 0.8 33.5 60 -6 21.2 -92.2 -3.63
11:43 1006 29.71 835 24.66 1 33.7 58 -6.4 20.5 -92.2 -3.63
11:44 1005 29.68 835 24.66 1 33.9 60 -5.8 21.5 -92.2 -3.63
11:45 1005 29.68 835 24.66 1 33.9 59 -6.1 21.1 -92.2 -3.63
11:46 1005 29.68 835 24.66 1 33.9 59 -6.2 20.9 -92.2 -3.63
11:47 1005 29.68 835 24.66 1 33.8 58 -6.3 20.6 -92.2 -3.63
11:48 1005 29.68 835 24.66 1.1 33.9 58 -6.3 20.7 -92.2 -3.63
11:49 1005 29.68 835 24.66 1.1 34 57 -6.4 20.5 -92.2 -3.63
11:50 1005 29.68 835 24.66 1.2 34.1 57 -6.4 20.4 -92.2 -3.63
11:51 1005 29.68 835 24.66 1.3 34.3 57 -6.3 20.7 -92.2 -3.63
11:52 1005 29.68 835 24.66 1.3 34.4 57 -6.2 20.9 -92.2 -3.63
11:53 1005 29.68 835 24.66 1.4 34.6 57 -6.1 21.1 -92.2 -3.63
11:54 1005 29.68 835 24.66 1.5 34.8 57 -6.2 20.9 -92.2 -3.63
11:55 1005 29.68 835 24.66 1.6 34.8 56 -6.3 20.6 -92.2 -3.63
11:56 1005 29.68 835 24.66 1.6 34.8 56 -6.3 20.6 -92.2 -3.63
11:57 1005 29.68 834 24.63 1.6 34.9 57 -6 21.2 -92.2 -3.63
11:58 1005 29.68 835 24.66 1.6 35 56 -6.2 20.9 -92.2 -3.63
11:59 1005 29.68 835 24.66 1.7 35 56 -6.1 21 -92.2 -3.63
12:00 1005 29.68 835 24.66 1.6 34.9 56 -6.2 20.9 -92.2 -3.63
12:01 1005 29.68 835 24.66 1.6 34.8 58 -5.8 21.5 -92.2 -3.63
12:02 1005 29.68 835 24.66 1.5 34.7 57 -6 21.2 -92.2 -3.63
12:03 1005 29.68 835 24.66 1.5 34.6 58 -5.8 21.5 -92.2 -3.63
12:04 1005 29.68 835 24.66 1.4 34.6 58 -6 21.3 -92.1 -3.626
12:05 1005 29.68 834 24.63 1.4 34.6 60 -5.6 22 -92.1 -3.626
12:06 1005 29.68 834 24.63 1.4 34.6 58 -6 21.3 -92.1 -3.626
12:07 1005 29.68 834 24.63 1.4 34.6 61 -5.2 22.6 -92.1 -3.626
12:08 1005 29.68 834 24.63 1.4 34.5 61 -5.3 22.4 -92.1 -3.626
12:09 1005 29.68 834 24.63 1.4 34.5 61 -5.3 22.4 -92.1 -3.626
12:10 1005 29.68 834 24.63 1.4 34.5 60 -5.5 22 -92.1 -3.626
12:11 1005 29.68 834 24.63 1.4 34.5 61 -5.4 22.2 -92.1 -3.626
12:12 1005 29.68 834 24.63 1.4 34.6 60 -5.5 22.2 -92.1 -3.626
12:13 1005 29.68 834 24.63 1.4 34.6 61 -5.4 22.4 -92.1 -3.626
12:14 1005 29.68 834 24.63 1.5 34.7 60 -5.5 22.1 -92.1 -3.626
12:15 1005 29.68 834 24.63 1.5 34.7 60 -5.5 22.2 -92.1 -3.626
12:16 1005 29.68 834 24.63 1.6 34.8 60 -5.3 22.5 -92.1 -3.626
12:17 1005 29.68 834 24.63 1.6 34.9 59 -5.6 21.9 -92.1 -3.626
12:18 1005 29.68 834 24.63 1.7 35 60 -5.3 22.5 -92.1 -3.626
12:19 1005 29.68 834 24.63 1.7 35.1 59 -5.5 22.1 -92.1 -3.626
12:20 1005 29.68 834 24.63 1.7 35.1 58 -5.6 21.9 -92.1 -3.626
12:21 1005 29.68 834 24.63 1.8 35.2 59 -5.4 22.3 -92.1 -3.626
12:22 1005 29.68 834 24.63 1.8 35.2 59 -5.3 22.5 -92.1 -3.626
12:23 1005 29.68 834 24.63 1.8 35.2 59 -5.4 22.2 -92 -3.622
12:24 1005 29.68 834 24.63 1.8 35.3 60 -5.2 22.6 -92 -3.622
12:25 1005 29.68 834 24.63 1.8 35.3 59 -5.3 22.5 -92 -3.622
12:26 1005 29.68 834 24.63 1.9 35.4 59 -5.3 22.5 -92 -3.622
12:27 1005 29.68 834 24.63 1.9 35.4 59 -5.2 22.6 -92 -3.622
12:28 1005 29.68 834 24.63 1.9 35.4 60 -5.2 22.7 -92 -3.622
12:29 1005 29.68 834 24.63 1.9 35.4 59 -5.3 22.5 -92 -3.622
12:30 1005 29.68 834 24.63 1.9 35.5 60 -5 23 -92 -3.622
12:31 1005 29.68 834 24.63 1.9 35.5 59 -5.2 22.7 -92 -3.622
12:32 1005 29.68 834 24.63 2 35.5 58 -5.5 22.2 -92 -3.622
12:33 1005 29.68 834 24.63 2 35.6 60 -5 23 -92 -3.622
12:34 1005 29.68 834 24.63 2.1 35.8 57 -5.5 22.1 -92 -3.622
12:35 1005 29.68 834 24.63 2.2 36 59 -5.1 22.8 -92 -3.622
12:36 1004 29.65 834 24.63 2.3 36.1 58 -5.1 22.8 -92 -3.622
12:37 1004 29.65 834 24.63 2.3 36.2 58 -5 23 -91.9 -3.618
12:38 1004 29.65 834 24.63 2.3 36.2 59 -4.9 23.2 -91.9 -3.618
12:39 1004 29.65 834 24.63 2.3 36.2 60 -4.6 23.7 -92 -3.622
12:40 1004 29.65 834 24.63 2.4 36.3 61 -4.4 24.1 -92 -3.622
12:41 1004 29.65 834 24.63 2.4 36.3 60 -4.5 23.9 -92 -3.622
12:42 1004 29.65 833 24.6 2.4 36.3 60 -4.6 23.8 -92 -3.622
12:43 1004 29.65 833 24.6 2.5 36.5 59 -4.7 23.6 -92 -3.622
12:44 1004 29.65 833 24.6 2.5 36.6 58 -4.9 23.2 -92 -3.622
12:45 1004 29.65 833 24.6 2.6 36.8 57 -4.9 23.1 -92 -3.622
12:46 1004 29.65 833 24.6 2.8 37 57 -5 23 -91.9 -3.618
12:47 1004 29.65 833 24.6 2.9 37.2 56 -5 22.9 -91.9 -3.618
12:48 1004 29.65 833 24.6 3 37.4 55 -5.1 22.8 -92 -3.622
12:49 1004 29.65 833 24.6 3.1 37.6 54 -5.3 22.4 -91.9 -3.618
12:50 1004 29.65 833 24.6 3.2 37.7 55 -4.9 23.1 -91.9 -3.618
12:51 1004 29.65 833 24.6 3.2 37.8 54 -5.2 22.6 -91.9 -3.618
12:52 1004 29.65 833 24.6 3.3 38 53 -5.3 22.4 -91.9 -3.618
12:53 1004 29.65 833 24.6 3.4 38.1 54 -5.1 22.8 -91.9 -3.618
12:54 1004 29.65 833 24.6 3.5 38.2 53 -5.3 22.4 -91.9 -3.618
12:55 1004 29.65 833 24.6 3.5 38.2 52 -5.4 22.3 -91.9 -3.618
12:56 1004 29.65 833 24.6 3.5 38.2 53 -5.3 22.5 -91.9 -3.618
12:57 1004 29.65 833 24.6 3.5 38.3 53 -5.3 22.5 -91.9 -3.618
12:58 1004 29.65 833 24.6 3.5 38.2 53 -5.3 22.5 -91.9 -3.618
12:59 1004 29.65 833 24.6 3.5 38.3 54 -5 23 -91.9 -3.618
13:00 1004 29.65 833 24.6 3.5 38.4 53 -5.2 22.7 -91.9 -3.618
13:01 1004 29.65 833 24.6 3.5 38.3 54 -5 23.1 -91.9 -3.618
13:02 1004 29.65 833 24.6 3.5 38.4 53 -5.1 22.8 -91.9 -3.618
13:03 1004 29.65 833 24.6 3.5 38.3 54 -5 23 -91.9 -3.618
13:04 1004 29.65 833 24.6 3.5 38.3 54 -4.9 23.2 -91.8 -3.614
13:05 1004 29.65 833 24.6 3.5 38.3 55 -4.8 23.4 -91.8 -3.614
13:06 1004 29.65 833 24.6 3.5 38.4 54 -5 23 -91.8 -3.614
13:07 1004 29.65 833 24.6 3.6 38.5 55 -4.6 23.7 -91.8 -3.614
13:08 1004 29.65 833 24.6 3.6 38.5 54 -4.8 23.3 -91.8 -3.614
13:09 1004 29.65 833 24.6 3.6 38.5 54 -4.8 23.4 -91.8 -3.614
13:10 1004 29.65 833 24.6 3.6 38.5 53 -5.1 22.9 -91.8 -3.614
13:11 1004 29.65 833 24.6 3.6 38.5 53 -5.1 22.8 -91.8 -3.614
13:12 1004 29.65 833 24.6 3.7 38.6 53 -5 23 -91.8 -3.614
13:13 1004 29.65 833 24.6 3.7 38.6 53 -5 23 -91.8 -3.614
13:14 1004 29.65 833 24.6 3.7 38.7 54 -4.8 23.3 -91.8 -3.614
13:15 1004 29.65 833 24.6 3.7 38.7 54 -4.9 23.2 -91.7 -3.61
13:16 1004 29.65 833 24.6 3.6 38.5 54 -4.8 23.4 -91.7 -3.61
13:17 1004 29.65 833 24.6 3.6 38.4 55 -4.6 23.7 -91.7 -3.61
13:18 1004 29.65 833 24.6 3.6 38.4 56 -4.4 24.1 -91.7 -3.61
13:19 1004 29.65 833 24.6 3.6 38.4 55 -4.5 23.8 -91.7 -3.61
13:20 1004 29.65 833 24.6 3.5 38.3 57 -4.2 24.5 -91.7 -3.61
13:21 1004 29.65 833 24.6 3.5 38.3 56 -4.5 23.9 -91.7 -3.61
13:22 1004 29.65 833 24.6 3.5 38.2 57 -4.3 24.2 -91.7 -3.61
13:23 1004 29.65 833 24.6 3.5 38.2 57 -4.3 24.3 -91.7 -3.61
13:24 1004 29.65 833 24.6 3.4 38.2 56 -4.5 23.9 -91.7 -3.61
13:25 1004 29.65 833 24.6 3.4 38.2 55 -4.7 23.6 -91.7 -3.61
13:26 1004 29.65 833 24.6 3.5 38.3 56 -4.4 24 -91.7 -3.61
13:27 1004 29.65 833 24.6 3.5 38.4 56 -4.4 24.1 -91.7 -3.61
13:28 1004 29.65 833 24.6 3.6 38.4 56 -4.5 24 -91.7 -3.61
13:29 1004 29.65 833 24.6 3.6 38.4 55 -4.5 23.9 -91.7 -3.61
13:30 1004 29.65 833 24.6 3.6 38.4 55 -4.5 23.9 -91.7 -3.61
13:31 1004 29.65 833 24.6 3.6 38.5 57 -4.1 24.6 -91.6 -3.606
13:32 1004 29.65 833 24.6 3.6 38.5 59 -3.7 25.3 -91.6 -3.606
13:33 1004 29.65 833 24.6 3.5 38.3 58 -4 24.9 -91.6 -3.606
13:34 1004 29.65 833 24.6 3.5 38.2 58 -4 24.8 -91.6 -3.606
13:35 1004 29.65 833 24.6 3.4 38.2 57 -4.4 24.1 -91.7 -3.61
13:36 1004 29.65 833 24.6 3.4 38.1 56 -4.6 23.7 -91.7 -3.61
13:37 1004 29.65 833 24.6 3.4 38.2 54 -5.1 22.9 -91.7 -3.61
13:38 1004 29.65 833 24.6 3.5 38.3 54 -4.9 23.2 -91.7 -3.61
13:39 1004 29.65 833 24.6 3.5 38.3 55 -4.8 23.4 -91.7 -3.61
13:40 1004 29.65 833 24.6 3.5 38.4 54 -5 23 -91.7 -3.61
13:41 1004 29.65 833 24.6 3.5 38.4 54 -4.9 23.2 -91.7 -3.61
13:42 1004 29.65 833 24.6 3.5 38.4 54 -4.9 23.2 -91.7 -3.61
13:43 1004 29.65 833 24.6 3.6 38.4 53 -5 23 -91.7 -3.61
13:44 1004 29.65 833 24.6 3.6 38.4 54 -4.8 23.4 -91.7 -3.61
13:45 1004 29.65 833 24.6 3.6 38.5 55 -4.6 23.8 -91.7 -3.61
13:46 1004 29.65 833 24.6 3.6 38.5 55 -4.5 23.9 -91.7 -3.61
13:47 1004 29.65 833 24.6 3.6 38.4 56 -4.4 24 -91.6 -3.606
13:48 1004 29.65 833 24.6 3.6 38.4 56 -4.3 24.2 -91.6 -3.606
13:49 1004 29.65 833 24.6 3.6 38.4 56 -4.3 24.2 -91.6 -3.606
13:50 1004 29.65 833 24.6 3.6 38.4 56 -4.4 24.1 -91.6 -3.606
13:51 1004 29.65 833 24.6 3.6 38.5 56 -4.4 24.2 -91.6 -3.606
13:52 1003 29.62 833 24.6 3.6 38.6 56 -4.4 24.2 -91.6 -3.606
13:53 1003 29.62 833 24.6 3.6 38.5 56 -4.3 24.2 -91.6 -3.606
13:54 1003 29.62 833 24.6 3.6 38.5 58 -4 24.9 -91.6 -3.606
13:55 1003 29.62 833 24.6 3.6 38.5 57 -4.2 24.5 -91.5 -3.602
13:56 1003 29.62 833 24.6 3.6 38.5 57 -4.1 24.7 -91.5 -3.602
13:57 1003 29.62 833 24.6 3.5 38.3 57 -4.1 24.6 -91.6 -3.606
13:58 1003 29.62 833 24.6 3.5 38.2 58 -4.1 24.6 -91.6 -3.606
13:59 1003 29.62 833 24.6 3.5 38.2 56 -4.6 23.7 -91.6 -3.606
14:00 1003 29.62 833 24.6 3.5 38.2 58 -4 24.7 -91.6 -3.606
14:01 1003 29.62 833 24.6 3.5 38.3 55 -4.6 23.7 -91.6 -3.606
14:02 1003 29.62 833 24.6 3.5 38.3 56 -4.4 24.1 -91.6 -3.606
14:03 1003 29.62 833 24.6 3.5 38.2 56 -4.5 23.9 -91.6 -3.606
14:04 1003 29.62 833 24.6 3.4 38.2 56 -4.5 23.9 -91.6 -3.606
14:05 1003 29.62 833 24.6 3.4 38.1 57 -4.4 24.2 -91.6 -3.606
14:06 1003 29.62 833 24.6 3.3 38 58 -4.2 24.5 -91.6 -3.606
14:07 1003 29.62 833 24.6 3.3 37.9 58 -4.3 24.3 -91.6 -3.606
14:08 1003 29.62 833 24.6 3.2 37.8 58 -4.3 24.2 -91.6 -3.606
14:09 1003 29.62 833 24.6 3.2 37.8 61 -3.6 25.5 -91.5 -3.602
14:10 1003 29.62 833 24.6 3.1 37.6 60 -3.8 25.1 -91.5 -3.602
14:11 1003 29.62 833 24.6 3 37.5 60 -4 24.8 -91.6 -3.606
14:12 1003 29.62 833 24.6 3.1 37.5 60 -4.1 24.7 -91.6 -3.606
14:13 1003 29.62 833 24.6 3.1 37.5 59 -4.2 24.4 -91.6 -3.606
14:14 1003 29.62 833 24.6 3.2 37.7 60 -3.8 25.1 -91.6 -3.606
14:15 1003 29.62 833 24.6 3.2 37.7 60 -3.9 25 -91.6 -3.606
14:16 1003 29.62 833 24.6 3.2 37.8 59 -4.1 24.6 -91.6 -3.606
14:17 1003 29.62 833 24.6 3.2 37.8 58 -4.2 24.4 -91.6 -3.606
14:18 1003 29.62 833 24.6 3.3 37.9 60 -3.7 25.3 -91.6 -3.606
14:19 1003 29.62 833 24.6 3.3 38 58 -4.1 24.6 -91.6 -3.606
14:20 1003 29.62 833 24.6 3.3 37.9 59 -4 24.9 -91.6 -3.606
14:21 1003 29.62 832 24.57 3.3 38 59 -4 24.9 -91.6 -3.606
14:22 1003 29.62 832 24.57 3.3 37.9 60 -3.8 25.2 -91.6 -3.606
14:23 1003 29.62 832 24.57 3.3 37.9 60 -3.8 25.1 -91.6 -3.606
14:24 1003 29.62 832 24.57 3.2 37.8 60 -3.7 25.3 -91.6 -3.606
14:25 1003 29.62 832 24.57 3.2 37.8 60 -3.8 25.1 -91.6 -3.606
14:26 1003 29.62 832 24.57 3.2 37.7 60 -3.7 25.3 -91.6 -3.606
14:27 1003 29.62 832 24.57 3.2 37.8 60 -3.8 25.2 -91.6 -3.606
14:28 1003 29.62 832 24.57 3.2 37.7 60 -3.8 25.2 -91.5 -3.602
14:29 1003 29.62 832 24.57 3.2 37.7 60 -3.9 24.9 -91.5 -3.602
14:30 1003 29.62 832 24.57 3.2 37.7 59 -4 24.7 -91.6 -3.606
14:31 1003 29.62 832 24.57 3.2 37.8 59 -3.9 24.9 -91.6 -3.606
14:32 1003 29.62 832 24.57 3.2 37.8 60 -3.8 25.2 -91.6 -3.606
14:33 1003 29.62 832 24.57 3.2 37.7 60 -3.8 25.1 -91.6 -3.606
14:34 1003 29.62 832 24.57 3.2 37.7 60 -3.8 25.2 -91.6 -3.606
14:35 1003 29.62 832 24.57 3.1 37.6 61 -3.6 25.5 -91.5 -3.602
14:36 1003 29.62 832 24.57 3.1 37.6 61 -3.6 25.6 -91.5 -3.602
14:37 1003 29.62 832 24.57 3.1 37.7 60 -3.9 25 -91.5 -3.602
14:38 1003 29.62 832 24.57 3.2 37.7 60 -3.8 25.2 -91.5 -3.602
14:39 1003 29.62 832 24.57 3.2 37.8 60 -3.8 25.2 -91.5 -3.602
14:40 1003 29.62 832 24.57 3.3 37.9 59 -3.9 25 -91.5 -3.602
14:41 1003 29.62 832 24.57 3.3 37.9 59 -4.1 24.7 -91.5 -3.602
14:42 1003 29.62 832 24.57 3.3 37.9 59 -3.9 24.9 -91.5 -3.602
14:43 1003 29.62 832 24.57 3.3 37.9 59 -4 24.9 -91.5 -3.602
14:44 1003 29.62 832 24.57 3.3 37.9 59 -3.9 24.9 -91.5 -3.602
14:45 1003 29.62 832 24.57 3.2 37.8 60 -3.9 25.1 -91.5 -3.602
14:46 1003 29.62 832 24.57 3.2 37.8 61 -3.6 25.5 -91.5 -3.602
14:47 1003 29.62 832 24.57 3.1 37.6 61 -3.6 25.5 -91.5 -3.602
14:48 1003 29.62 832 24.57 3.1 37.6 60 -3.8 25.1 -91.5 -3.602
14:49 1003 29.62 832 24.57 3.1 37.6 61 -3.6 25.5 -91.5 -3.602
14:50 1003 29.62 832 24.57 3.1 37.6 59 -4.1 24.7 -91.5 -3.602
14:51 1003 29.62 832 24.57 3.1 37.7 60 -3.9 25 -91.5 -3.602
14:52 1003 29.62 832 24.57 3.1 37.7 60 -3.8 25.1 -91.5 -3.602
14:53 1003 29.62 832 24.57 3.1 37.6 60 -4 24.8 -91.5 -3.602
14:54 1003 29.62 832 24.57 3.1 37.7 60 -3.8 25.1 -91.5 -3.602
14:55 1003 29.62 832 24.57 3.1 37.6 60 -3.8 25.1 -91.5 -3.602
14:56 1003 29.62 832 24.57 3.1 37.6 60 -3.9 25 -91.5 -3.602
14:57 1003 29.62 832 24.57 3.1 37.6 61 -3.8 25.2 -91.5 -3.602
14:58 1003 29.62 832 24.57 3.1 37.5 61 -3.8 25.1 -91.5 -3.602
14:59 1003 29.62 832 24.57 3.1 37.5 61 -3.8 25.1 -91.5 -3.602
15:00 1003 29.62 832 24.57 3 37.4 61 -3.8 25.2 -91.5 -3.602
15:01 1003 29.62 832 24.57 3 37.3 61 -3.8 25.1 -91.5 -3.602
15:02 1003 29.62 832 24.57 2.9 37.3 61 -3.8 25.2 -91.5 -3.602
15:03 1003 29.62 832 24.57 2.9 37.3 61 -3.9 25 -91.5 -3.602
15:04 1003 29.62 832 24.57 2.9 37.3 60 -4 24.8 -91.5 -3.602
15:05 1003 29.62 832 24.57 3 37.4 60 -4.1 24.7 -91.5 -3.602
15:06 1003 29.62 832 24.57 2.9 37.3 61 -3.9 25 -91.5 -3.602
15:07 1003 29.62 832 24.57 3 37.3 60 -3.9 24.9 -91.5 -3.602
15:08 1003 29.62 832 24.57 2.9 37.2 62 -3.7 25.3 -91.5 -3.602
15:09 1003 29.62 832 24.57 2.8 37 63 -3.5 25.8 -91.5 -3.602
15:10 1003 29.62 832 24.57 2.7 36.8 64 -3.6 25.6 -91.5 -3.602
15:11 1003 29.62 832 24.57 2.6 36.6 64 -3.5 25.6 -91.5 -3.602
15:12 1003 29.62 832 24.57 2.5 36.4 64 -3.6 25.5 -91.5 -3.602
15:13 1003 29.62 832 24.57 2.4 36.3 65 -3.5 25.6 -91.5 -3.602
15:14 1003 29.62 832 24.57 2.4 36.3 65 -3.6 25.6 -91.5 -3.602
15:15 1003 29.62 832 24.57 2.4 36.3 65 -3.5 25.6 -91.5 -3.602
15:16 1003 29.62 832 24.57 2.4 36.3 65 -3.6 25.5 -91.5 -3.602
15:17 1003 29.62 832 24.57 2.4 36.3 65 -3.6 25.5 -91.5 -3.602
15:18 1003 29.62 832 24.57 2.4 36.3 65 -3.5 25.7 -91.5 -3.602
15:19 1003 29.62 832 24.57 2.4 36.3 64 -3.7 25.3 -91.5 -3.602
15:20 1003 29.62 832 24.57 2.4 36.2 64 -3.7 25.4 -91.5 -3.602
15:21 1003 29.62 832 24.57 2.3 36.2 65 -3.6 25.5 -91.5 -3.602
15:22 1003 29.62 832 24.57 2.4 36.2 65 -3.6 25.6 -91.5 -3.602
15:23 1003 29.62 832 24.57 2.3 36.2 65 -3.6 25.5 -91.5 -3.602
15:24 1003 29.62 832 24.57 2.3 36.2 65 -3.5 25.6 -91.5 -3.602
15:25 1003 29.62 832 24.57 2.3 36.2 65 -3.6 25.6 -91.5 -3.602
15:26 1003 29.62 832 24.57 2.2 36 66 -3.6 25.6 -91.5 -3.602
15:27 1003 29.62 832 24.57 2.2 36 66 -3.4 25.8 -91.5 -3.602
15:28 1003 29.62 832 24.57 2.3 36.1 65 -3.6 25.6 -91.5 -3.602
15:29 1003 29.62 832 24.57 2.2 36 66 -3.5 25.7 -91.5 -3.602
15:30 1003 29.62 832 24.57 2.2 36 65 -3.6 25.5 -91.5 -3.602
15:31 1003 29.62 832 24.57 2.2 35.9 65 -3.7 25.4 -91.5 -3.602
15:32 1003 29.62 832 24.57 2.2 35.9 66 -3.6 25.5 -91.5 -3.602
15:33 1003 29.62 832 24.57 2.2 35.9 66 -3.6 25.6 -91.5 -3.602
15:34 1003 29.62 832 24.57 2.2 35.9 66 -3.5 25.6 -91.5 -3.602
15:35 1003 29.62 832 24.57 2.2 35.9 67 -3.4 25.9 -91.5 -3.602
15:36 1003 29.62 832 24.57 2.1 35.8 66 -3.5 25.6 -91.5 -3.602
15:37 1003 29.62 832 24.57 2.1 35.8 66 -3.6 25.5 -91.5 -3.602
15:38 1003 29.62 832 24.57 2.1 35.8 66 -3.6 25.6 -91.5 -3.602
15:39 1003 29.62 832 24.57 2.1 35.8 67 -3.5 25.7 -91.4 -3.598
15:40 1003 29.62 832 24.57 2.1 35.7 66 -3.5 25.7 -91.4 -3.598
15:41 1003 29.62 832 24.57 2.1 35.8 66 -3.6 25.4 -91.5 -3.602
15:42 1003 29.62 832 24.57 2 35.7 66 -3.6 25.4 -91.5 -3.602
15:43 1003 29.62 832 24.57 2 35.6 66 -3.7 25.4 -91.5 -3.602
15:44 1003 29.62 832 24.57 1.9 35.5 67 -3.5 25.6 -91.5 -3.602
15:45 1003 29.62 832 24.57 1.9 35.4 67 -3.6 25.6 -91.5 -3.602
15:46 1003 29.62 832 24.57 1.7 35.1 67 -3.7 25.4 -91.5 -3.602
15:47 1003 29.62 832 24.57 1.7 35.1 67 -3.7 25.3 -91.5 -3.602
15:48 1003 29.62 832 24.57 1.7 35 68 -3.6 25.5 -91.5 -3.602
15:49 1003 29.62 832 24.57 1.7 35 67 -3.7 25.3 -91.5 -3.602
15:50 1003 29.62 832 24.57 1.6 34.9 69 -3.5 25.6 -91.5 -3.602
15:51 1003 29.62 832 24.57 1.6 34.9 68 -3.7 25.4 -91.5 -3.602
15:52 1003 29.62 832 24.57 1.6 34.9 68 -3.6 25.6 -91.5 -3.602
15:53 1003 29.62 832 24.57 1.6 34.9 68 -3.6 25.5 -91.5 -3.602
15:54 1003 29.62 832 24.57 1.7 35 68 -3.5 25.7 -91.5 -3.602
15:55 1003 29.62 832 24.57 1.6 34.9 70 -3.3 26 -91.4 -3.598
15:56 1003 29.62 832 24.57 1.6 34.9 69 -3.5 25.7 -91.4 -3.598
15:57 1003 29.62 832 24.57 1.6 34.9 69 -3.4 25.8 -91.5 -3.602
15:58 1003 29.62 832 24.57 1.6 34.8 70 -3.4 25.9 -91.5 -3.602
15:59 1003 29.62 832 24.57 1.6 34.8 70 -3.4 25.8 -91.4 -3.598
16:00 1003 29.62 832 24.57 1.5 34.8 71 -3.2 26.3 -91.4 -3.598
16:01 1003 29.62 832 24.57 1.5 34.7 71 -3.2 26.3 -91.4 -3.598
16:02 1003 29.62 832 24.57 1.4 34.6 71 -3.4 26 -91.4 -3.598
16:03 1003 29.62 832 24.57 1.5 34.7 69 -3.5 25.7 -91.4 -3.598
16:04 1003 29.62 832 24.57 1.5 34.7 68 -3.7 25.4 -91.5 -3.602
16:05 1003 29.62 832 24.57 1.6 34.9 69 -3.4 25.8 -91.4 -3.598
16:06 1003 29.62 832 24.57 1.7 35 69 -3.4 25.9 -91.4 -3.598
16:07 1003 29.62 832 24.57 1.7 35 69 -3.4 25.9 -91.4 -3.598
16:08 1003 29.62 832 24.57 1.7 35 69 -3.4 25.9 -91.4 -3.598
16:09 1003 29.62 832 24.57 1.7 35.1 70 -3.3 26.1 -91.4 -3.598
16:10 1003 29.62 832 24.57 1.6 35 70 -3.2 26.3 -91.4 -3.598
16:11 1003 29.62 832 24.57 1.6 34.9 70 -3.3 26.1 -91.4 -3.598
16:12 1003 29.62 832 24.57 1.7 35 69 -3.4 25.9 -91.4 -3.598
16:13 1003 29.62 832 24.57 1.7 35.1 68 -3.5 25.7 -91.5 -3.602
16:14 1003 29.62 832 24.57 1.8 35.2 68 -3.5 25.8 -91.5 -3.602
16:15 1003 29.62 832 24.57 1.8 35.2 68 -3.5 25.8 -91.5 -3.602
16:16 1003 29.62 832 24.57 1.8 35.2 69 -3.3 26.1 -91.5 -3.602
16:17 1003 29.62 832 24.57 1.8 35.2 69 -3.3 26.1 -91.5 -3.602
16:18 1003 29.62 832 24.57 1.7 35.1 69 -3.3 26 -91.5 -3.602
16:19 1003 29.62 832 24.57 1.7 35.1 69 -3.3 26.1 -91.5 -3.602
16:20 1003 29.62 832 24.57 1.8 35.2 69 -3.4 25.9 -91.5 -3.602
16:21 1003 29.62 832 24.57 1.8 35.2 69 -3.3 26 -91.5 -3.602
16:22 1003 29.62 832 24.57 1.8 35.3 69 -3.3 26 -91.5 -3.602
16:23 1003 29.62 832 24.57 1.8 35.3 68 -3.4 25.9 -91.5 -3.602
16:24 1003 29.62 832 24.57 1.9 35.4 68 -3.3 26 -91.5 -3.602
16:25 1003 29.62 832 24.57 1.9 35.4 69 -3.2 26.3 -91.5 -3.602
16:26 1003 29.62 832 24.57 1.8 35.2 70 -3.2 26.2 -91.5 -3.602
16:27 1003 29.62 832 24.57 1.7 35 70 -3.2 26.2 -91.5 -3.602
16:28 1003 29.62 832 24.57 1.6 34.8 71 -3.1 26.4 -91.5 -3.602
16:29 1003 29.62 832 24.57 1.4 34.6 72 -3.1 26.4 -91.5 -3.602
16:30 1003 29.62 832 24.57 1.4 34.5 72 -3.1 26.4 -91.5 -3.602
16:31 1003 29.62 832 24.57 1.3 34.4 72 -3.2 26.3 -91.5 -3.602
16:32 1003 29.62 832 24.57 1.3 34.4 72 -3.1 26.3 -91.5 -3.602
16:33 1003 29.62 832 24.57 1.3 34.3 73 -3.1 26.5 -91.4 -3.598
16:34 1003 29.62 832 24.57 1.2 34.2 74 -2.9 26.8 -91.4 -3.598
16:35 1003 29.62 832 24.57 1.2 34.1 74 -2.9 26.8 -91.4 -3.598
16:36 1003 29.62 832 24.57 1.2 34.1 73 -3 26.5 -91.4 -3.598
16:37 1003 29.62 832 24.57 1.3 34.3 73 -3 26.6 -91.4 -3.598
16:38 1003 29.62 832 24.57 1.4 34.4 72 -3.1 26.5 -91.4 -3.598
16:39 1003 29.62 832 24.57 1.5 34.6 73 -2.9 26.7 -91.4 -3.598
16:40 1003 29.62 832 24.57 1.4 34.6 73 -2.9 26.9 -91.4 -3.598
16:41 1003 29.62 832 24.57 1.4 34.6 73 -2.8 26.9 -91.4 -3.598
16:42 1003 29.62 832 24.57 1.3 34.4 74 -2.9 26.9 -91.4 -3.598
16:43 1003 29.62 832 24.57 1.3 34.4 74 -2.8 26.9 -91.4 -3.598
16:44 1003 29.62 832 24.57 1.3 34.3 74 -2.9 26.8 -91.4 -3.598
16:45 1003 29.62 832 24.57 1.3 34.3 74 -2.8 27 -91.4 -3.598
16:46 1003 29.62 832 24.57 1.2 34.2 75 -2.7 27.1 -91.4 -3.598
16:47 1003 29.62 832 24.57 1.1 34 75 -2.7 27.1 -91.4 -3.598
16:48 1003 29.62 832 24.57 1.1 34 76 -2.7 27.1 -91.4 -3.598
16:49 1003 29.62 832 24.57 1 33.8 76 -2.7 27.2 -91.4 -3.598
16:50 1003 29.62 832 24.57 1 33.8 76 -2.7 27.1 -91.4 -3.598
16:51 1003 29.62 832 24.57 1 33.7 77 -2.7 27.1 -91.4 -3.598
16:52 1003 29.62 832 24.57 0.9 33.6 77 -2.7 27.1 -91.4 -3.598
16:53 1003 29.62 832 24.57 0.8 33.5 77 -2.7 27.1 -91.4 -3.598
16:54 1003 29.62 832 24.57 0.8 33.5 77 -2.7 27.2 -91.4 -3.598
16:55 1003 29.62 832 24.57 0.8 33.4 77 -2.7 27.1 -91.4 -3.598
16:56 1003 29.62 832 24.57 0.8 33.4 78 -2.7 27.1 -91.4 -3.598
16:57 1003 29.62 832 24.57 0.7 33.3 78 -2.8 27 -91.4 -3.598
16:58 1003 29.62 832 24.57 0.8 33.4 78 -2.7 27.1 -91.4 -3.598
16:59 1003 29.62 832 24.57 0.7 33.3 78 -2.7 27.1 -91.4 -3.598
17:00 1003 29.62 832 24.57 0.8 33.4 78 -2.7 27.1 -91.4 -3.598
17:01 1003 29.62 832 24.57 0.7 33.3 78 -2.7 27.1 -91.4 -3.598
17:02 1003 29.62 832 24.57 0.7 33.3 78 -2.7 27.1 -91.4 -3.598
17:03 1003 29.62 832 24.57 0.7 33.3 78 -2.7 27.2 -91.4 -3.598
17:04 1003 29.62 832 24.57 0.7 33.2 78 -2.7 27.2 -91.4 -3.598
17:05 1003 29.62 832 24.57 0.6 33.1 79 -2.7 27.2 -91.4 -3.598
17:06 1003 29.62 832 24.57 0.6 33 79 -2.7 27.2 -91.4 -3.598
17:07 1003 29.62 832 24.57 0.5 32.9 79 -2.7 27.2 -91.4 -3.598
17:08 1003 29.62 832 24.57 0.5 32.9 79 -2.7 27.2 -91.4 -3.598
17:09 1003 29.62 832 24.57 0.5 32.9 79 -2.6 27.2 -91.4 -3.598
17:10 1003 29.62 832 24.57 0.5 32.9 80 -2.6 27.2 -91.4 -3.598
17:11 1003 29.62 832 24.57 0.6 33 79 -2.7 27.1 -91.4 -3.598
17:12 1003 29.62 832 24.57 0.7 33.3 77 -2.8 27 -91.4 -3.598
17:13 1003 29.62 832 24.57 0.8 33.5 77 -2.8 27 -91.4 -3.598
17:14 1003 29.62 832 24.57 0.9 33.6 76 -2.8 27 -91.4 -3.598
17:15 1003 29.62 832 24.57 1 33.7 76 -2.7 27.1 -91.4 -3.598
17:16 1003 29.62 832 24.57 1 33.7 76 -2.8 27 -91.4 -3.598
17:17 1003 29.62 832 24.57 1 33.7 76 -2.8 27 -91.4 -3.598
17:18 1003 29.62 832 24.57 1 33.8 76 -2.7 27.1 -91.4 -3.598
17:19 1003 29.62 832 24.57 0.9 33.6 77 -2.7 27.1 -91.4 -3.598
17:20 1003 29.62 832 24.57 0.9 33.6 77 -2.7 27.1 -91.4 -3.598
17:21 1003 29.62 832 24.57 0.9 33.7 77 -2.7 27.1 -91.4 -3.598
17:22 1003 29.62 832 24.57 0.9 33.6 76 -2.8 27 -91.4 -3.598
17:23 1003 29.62 832 24.57 1 33.8 76 -2.8 27 -91.4 -3.598
17:24 1003 29.62 832 24.57 1 33.8 76 -2.8 26.9 -91.4 -3.598
17:25 1003 29.62 832 24.57 1.1 33.9 76 -2.7 27.1 -91.4 -3.598
17:26 1003 29.62 832 24.57 1 33.8 76 -2.7 27.2 -91.4 -3.598
17:27 1003 29.62 832 24.57 0.9 33.6 78 -2.6 27.4 -91.4 -3.598
17:28 1003 29.62 832 24.57 0.7 33.3 79 -2.6 27.4 -91.4 -3.598
17:29 1003 29.62 832 24.57 0.6 33.1 79 -2.5 27.4 -91.4 -3.598
17:30 1003 29.62 832 24.57 0.5 32.9 80 -2.6 27.4 -91.4 -3.598
17:31 1003 29.62 832 24.57 0.5 32.8 81 -2.5 27.5 -91.4 -3.598
17:32 1003 29.62 832 24.57 0.4 32.7 81 -2.5 27.5 -91.4 -3.598
17:33 1003 29.62 832 24.57 0.3 32.6 81 -2.6 27.4 -91.4 -3.598
17:34 1003 29.62 832 24.57 0.3 32.5 82 -2.5 27.4 -91.4 -3.598
17:35 1003 29.62 832 24.57 0.2 32.4 81 -2.6 27.4 -91.4 -3.598
17:36 1003 29.62 832 24.57 0.3 32.5 81 -2.6 27.4 -91.4 -3.598
17:37 1003 29.62 832 24.57 0.2 32.4 82 -2.6 27.4 -91.4 -3.598
17:38 1003 29.62 832 24.57 0.2 32.4 82 -2.5 27.5 -91.4 -3.598
17:39 1003 29.62 832 24.57 0.3 32.5 82 -2.5 27.5 -91.4 -3.598
17:40 1003 29.62 832 24.57 0.3 32.5 82 -2.5 27.6 -91.4 -3.598
17:41 1003 29.62 832 24.57 0.3 32.5 82 -2.5 27.6 -91.4 -3.598
17:42 1003 29.62 832 24.57 0.2 32.4 82 -2.5 27.6 -91.4 -3.598
17:43 1003 29.62 832 24.57 0.3 32.5 82 -2.5 27.6 -91.4 -3.598
17:44 1003 29.62 832 24.57 0.3 32.5 82 -2.5 27.5 -91.4 -3.598
17:45 1003 29.62 832 24.57 0.3 32.5 82 -2.5 27.6 -91.4 -3.598
17:46 1003 29.62 832 24.57 0.3 32.5 82 -2.4 27.6 -91.4 -3.598
17:47 1003 29.62 832 24.57 0.2 32.4 82 -2.4 27.6 -91.4 -3.598
17:48 1003 29.62 832 24.57 0.2 32.4 83 -2.4 27.6 -91.4 -3.598
17:49 1003 29.62 832 24.57 0.2 32.4 82 -2.4 27.6 -91.4 -3.598
17:50 1003 29.62 832 24.57 0.3 32.5 82 -2.4 27.7 -91.4 -3.598
17:51 1003 29.62 832 24.57 0.3 32.5 82 -2.4 27.6 -91.4 -3.598
17:52 1003 29.62 832 24.57 0.3 32.6 82 -2.4 27.7 -91.4 -3.598
17:53 1003 29.62 832 24.57 0.3 32.5 82 -2.4 27.7 -91.4 -3.598
17:54 1003 29.62 832 24.57 0.2 32.4 83 -2.4 27.7 -91.4 -3.598
17:55 1003 29.62 832 24.57 0.2 32.4 83 -2.4 27.7 -91.4 -3.598
17:56 1003 29.62 832 24.57 0.2 32.4 83 -2.4 27.7 -91.4 -3.598
17:57 1003 29.62 832 24.57 0.2 32.4 83 -2.4 27.7 -91.4 -3.598
17:58 1003 29.62 832 24.57 0.3 32.5 83 -2.3 27.8 -91.4 -3.598
17:59 1003 29.62 832 24.57 0.3 32.6 82 -2.3 27.8 -91.4 -3.598
18:00 1003 29.62 832 24.57 0.3 32.6 82 -2.3 27.8 -91.4 -3.598
18:01 1003 29.62 832 24.57 0.4 32.7 82 -2.3 27.8 -91.4 -3.598
18:02 1003 29.62 832 24.57 0.4 32.7 82 -2.3 27.8 -91.4 -3.598
18:03 1003 29.62 832 24.57 0.5 32.9 82 -2.3 27.9 -91.4 -3.598
18:04 1003 29.62 832 24.57 0.5 32.9 82 -2.3 27.9 -91.4 -3.598
18:05 1003 29.62 832 24.57 0.5 32.8 82 -2.3 27.8 -91.4 -3.598
18:06 1003 29.62 832 24.57 0.5 32.9 82 -2.3 27.8 -91.4 -3.598
18:07 1003 29.62 832 24.57 0.5 32.8 82 -2.3 27.8 -91.5 -3.602
18:08 1003 29.62 832 24.57 0.4 32.7 82 -2.3 27.8 -91.5 -3.602
18:09 1003 29.62 832 24.57 0.4 32.6 82 -2.4 27.7 -91.5 -3.602
18:10 1003 29.62 832 24.57 0.3 32.6 82 -2.4 27.7 -91.5 -3.602
18:11 1003 29.62 832 24.57 0.3 32.6 82 -2.3 27.8 -91.5 -3.602
18:12 1003 29.62 832 24.57 0.3 32.5 82 -2.4 27.7 -91.5 -3.602
18:13 1003 29.62 832 24.57 0.3 32.6 82 -2.4 27.7 -91.5 -3.602
18:14 1003 29.62 832 24.57 0.3 32.6 82 -2.4 27.7 -91.5 -3.602
18:15 1003 29.62 832 24.57 0.4 32.7 81 -2.4 27.7 -91.5 -3.602
18:16 1003 29.62 832 24.57 0.5 32.8 81 -2.4 27.7 -91.5 -3.602
18:17 1003 29.62 832 24.57 0.4 32.8 81 -2.4 27.7 -91.5 -3.602
18:18 1003 29.62 832 24.57 0.5 32.8 81 -2.4 27.6 -91.5 -3.602
18:19 1003 29.62 832 24.57 0.6 33 81 -2.4 27.7 -91.5 -3.602
18:20 1003 29.62 832 24.57 0.6 33.2 81 -2.3 27.8 -91.5 -3.602
18:21 1003 29.62 832 24.57 0.6 33.1 80 -2.4 27.7 -91.5 -3.602
18:22 1003 29.62 832 24.57 0.5 33 81 -2.4 27.7 -91.5 -3.602
18:23 1003 29.62 832 24.57 0.4 32.8 81 -2.4 27.7 -91.5 -3.602
18:24 1003 29.62 832 24.57 0.3 32.6 82 -2.4 27.7 -91.5 -3.602
18:25 1003 29.62 832 24.57 0.3 32.5 82 -2.4 27.6 -91.5 -3.602
18:26 1003 29.62 832 24.57 0.2 32.4 82 -2.4 27.6 -91.5 -3.602
18:27 1003 29.62 832 24.57 0.3 32.6 81 -2.5 27.6 -91.5 -3.602
18:28 1003 29.62 832 24.57 0.5 32.9 80 -2.5 27.4 -91.5 -3.602
18:29 1003 29.62 832 24.57 0.6 33.1 80 -2.5 27.5 -91.5 -3.602
18:30 1003 29.62 832 24.57 0.6 33.1 80 -2.5 27.5 -91.5 -3.602
18:31 1003 29.62 832 24.57 0.6 33.1 80 -2.5 27.5 -91.5 -3.602
18:32 1003 29.62 832 24.57 0.7 33.3 79 -2.5 27.4 -91.5 -3.602
18:33 1003 29.62 832 24.57 0.8 33.4 78 -2.6 27.4 -91.5 -3.602
18:34 1003 29.62 832 24.57 0.9 33.6 78 -2.6 27.4 -91.5 -3.602
18:35 1003 29.62 832 24.57 0.9 33.6 78 -2.5 27.5 -91.5 -3.602
18:36 1003 29.62 832 24.57 0.8 33.5 78 -2.5 27.4 -91.5 -3.602
18:37 1003 29.62 832 24.57 0.8 33.5 78 -2.5 27.5 -91.5 -3.602
18:38 1003 29.62 832 24.57 1 33.8 78 -2.5 27.6 -91.5 -3.602
18:39 1003 29.62 832 24.57 1.6 35 73 -2.7 27.2 -91.5 -3.602
18:40 1003 29.62 832 24.57 2.5 36.4 70 -2.4 27.7 -91.5 -3.602
18:41 1003 29.62 832 24.57 3 37.4 68 -2.3 27.9 -91.5 -3.602
18:42 1003 29.62 832 24.57 3.3 38 66 -2.3 27.8 -91.5 -3.602
18:43 1003 29.62 832 24.57 3.6 38.4 65 -2.4 27.8 -91.5 -3.602
18:44 1003 29.62 832 24.57 3.8 38.8 64 -2.4 27.7 -91.5 -3.602
18:45 1003 29.62 832 24.57 3.9 39 64 -2.3 27.8 -91.5 -3.602
18:46 1003 29.62 832 24.57 4 39.3 63 -2.3 27.8 -91.5 -3.602
18:47 1003 29.62 832 24.57 4.1 39.4 63 -2.2 28 -91.6 -3.606
18:48 1003 29.62 832 24.57 4.1 39.4 63 -2.3 27.8 -91.6 -3.606
18:49 1003 29.62 832 24.57 4.1 39.4 63 -2.2 28.1 -91.6 -3.606
18:50 1003 29.62 832 24.57 4.1 39.3 63 -2.3 27.8 -91.6 -3.606
18:51 1003 29.62 832 24.57 4 39.3 63 -2.4 27.6 -91.6 -3.606
18:52 1003 29.62 832 24.57 4.1 39.4 63 -2.3 27.8 -91.6 -3.606
18:53 1003 29.62 832 24.57 4.1 39.4 63 -2.2 28 -91.6 -3.606
18:54 1003 29.62 832 24.57 4 39.2 63 -2.3 27.8 -91.6 -3.606
18:55 1003 29.62 832 24.57 4 39.3 63 -2.3 27.9 -91.6 -3.606
18:56 1003 29.62 832 24.57 4 39.2 63 -2.3 27.8 -91.6 -3.606
18:57 1003 29.62 832 24.57 4 39.1 63 -2.4 27.7 -91.6 -3.606
18:58 1003 29.62 832 24.57 4 39.2 63 -2.4 27.7 -91.6 -3.606
18:59 1003 29.62 832 24.57 4 39.2 64 -2.3 27.9 -91.6 -3.606
19:00 1003 29.62 832 24.57 4 39.2 64 -2.2 28 -91.6 -3.606
19:01 1003 29.62 832 24.57 3.9 39.1 64 -2.3 27.8 -91.6 -3.606
19:02 1003 29.62 832 24.57 3.9 39 63 -2.4 27.6 -91.6 -3.606
19:03 1003 29.62 832 24.57 4 39.1 64 -2.3 27.8 -91.6 -3.606
19:04 1003 29.62 832 24.57 3.9 39 64 -2.3 27.8 -91.6 -3.606
19:05 1003 29.62 832 24.57 3.9 39 64 -2.4 27.7 -91.6 -3.606
19:06 1003 29.62 832 24.57 3.9 39 64 -2.4 27.8 -91.6 -3.606
19:07 1003 29.62 832 24.57 3.9 39 63 -2.4 27.6 -91.6 -3.606
19:08 1003 29.62 832 24.57 3.9 39 63 -2.5 27.5 -91.6 -3.606
19:09 1003 29.62 832 24.57 3.9 39.1 63 -2.5 27.5 -91.6 -3.606
19:10 1003 29.62 832 24.57 4 39.2 62 -2.5 27.4 -91.6 -3.606
19:11 1003 29.62 832 24.57 4 39.3 62 -2.6 27.3 -91.5 -3.602
19:12 1003 29.62 832 24.57 4.1 39.3 62 -2.5 27.4 -91.5 -3.602
19:13 1003 29.62 832 24.57 4.1 39.3 62 -2.5 27.5 -91.5 -3.602
19:14 1003 29.62 832 24.57 4.1 39.3 62 -2.6 27.4 -91.5 -3.602
19:15 1003 29.62 832 24.57 4.1 39.4 61 -2.7 27.1 -91.5 -3.602
19:16 1003 29.62 832 24.57 4.1 39.4 62 -2.6 27.3 -91.5 -3.602
19:17 1003 29.62 832 24.57 4.2 39.5 61 -2.6 27.3 -91.5 -3.602
19:18 1003 29.62 832 24.57 4.2 39.5 61 -2.7 27.2 -91.5 -3.602
19:19 1003 29.62 832 24.57 4.2 39.5 61 -2.7 27.1 -91.5 -3.602
19:20 1003 29.62 832 24.57 4.2 39.6 61 -2.7 27.2 -91.5 -3.602
19:21 1003 29.62 832 24.57 4.2 39.5 61 -2.7 27.1 -91.5 -3.602
19:22 1003 29.62 832 24.57 4.2 39.6 60 -2.8 27 -91.5 -3.602
19:23 1003 29.62 832 24.57 4.3 39.7 60 -2.7 27.1 -91.5 -3.602
19:24 1003 29.62 832 24.57 4.3 39.7 61 -2.7 27.2 -91.5 -3.602
19:25 1003 29.62 832 24.57 4.2 39.6 60 -2.8 26.9 -91.5 -3.602
19:26 1003 29.62 832 24.57 4.3 39.7 60 -2.7 27.2 -91.5 -3.602
19:27 1003 29.62 832 24.57 4.3 39.8 59 -2.9 26.8 -91.5 -3.602
19:28 1003 29.62 832 24.57 4.4 40 60 -2.7 27.1 -91.5 -3.602
19:29 1003 29.62 832 24.57 4.4 40 60 -2.6 27.2 -91.5 -3.602
19:30 1003 29.62 832 24.57 4.4 39.9 59 -2.8 27 -91.5 -3.602
19:31 1003 29.62 832 24.57 4.4 39.9 59 -2.8 26.9 -91.5 -3.602
19:32 1003 29.62 832 24.57 4.4 40 59 -2.9 26.8 -91.5 -3.602
19:33 1003 29.62 832 24.57 4.4 40 59 -2.9 26.8 -91.5 -3.602
19:34 1003 29.62 832 24.57 4.5 40 59 -2.9 26.9 -91.5 -3.602
19:35 1003 29.62 832 24.57 4.5 40 59 -2.8 26.9 -91.5 -3.602
19:36 1003 29.62 832 24.57 4.5 40 59 -2.8 26.9 -91.5 -3.602
19:37 1003 29.62 832 24.57 4.4 39.9 59 -3 26.7 -91.5 -3.602
19:38 1003 29.62 832 24.57 4.5 40.1 58 -3 26.6 -91.5 -3.602
19:39 1003 29.62 832 24.57 4.6 40.3 57 -3.1 26.4 -91.5 -3.602
19:40 1003 29.62 832 24.57 4.8 40.6 56 -3.3 26.1 -91.5 -3.602
19:41 1003 29.62 832 24.57 4.9 40.8 57 -3 26.6 -91.5 -3.602
19:42 1003 29.62 832 24.57 4.9 40.7 56 -3.1 26.4 -91.5 -3.602
19:43 1003 29.62 832 24.57 4.9 40.8 56 -3.1 26.5 -91.5 -3.602
19:44 1003 29.62 832 24.57 5 41 56 -3 26.6 -91.5 -3.602
19:45 1003 29.62 832 24.57 5 41 55 -3.2 26.2 -91.5 -3.602
19:46 1003 29.62 832 24.57 5.1 41.2 56 -3 26.6 -91.5 -3.602
19:47 1003 29.62 832 24.57 5.1 41.2 56 -2.9 26.7 -91.5 -3.602
19:48 1003 29.62 832 24.57 5 41 57 -2.9 26.8 -91.5 -3.602
19:49 1003 29.62 832 24.57 4.9 40.9 56 -3.1 26.4 -91.5 -3.602
19:50 1003 29.62 832 24.57 4.9 40.8 56 -3 26.6 -91.5 -3.602
19:51 1003 29.62 832 24.57 4.9 40.8 57 -3 26.7 -91.4 -3.598
19:52 1003 29.62 832 24.57 4.8 40.7 56 -3.1 26.4 -91.4 -3.598
19:53 1003 29.62 832 24.57 4.9 40.8 56 -3.2 26.3 -91.4 -3.598
19:54 1003 29.62 832 24.57 4.9 40.9 56 -3.1 26.3 -91.4 -3.598
19:55 1003 29.62 832 24.57 5 40.9 56 -3.1 26.4 -91.4 -3.598
19:56 1003 29.62 832 24.57 5 41 56 -3.1 26.4 -91.4 -3.598
19:57 1003 29.62 832 24.57 5 41 57 -2.9 26.7 -91.4 -3.598
19:58 1003 29.62 832 24.57 4.9 40.9 56 -3.1 26.4 -91.4 -3.598
19:59 1003 29.62 832 24.57 5 41 55 -3.2 26.2 -91.4 -3.598
20:00 1003 29.62 832 24.57 5 41 55 -3.3 26.1 -91.4 -3.598
20:01 1003 29.62 832 24.57 5.1 41.2 55 -3.1 26.4 -91.4 -3.598
20:02 1003 29.62 832 24.57 5.2 41.3 56 -3 26.6 -91.4 -3.598
20:03 1003 29.62 832 24.57 5.1 41.2 55 -3.1 26.4 -91.4 -3.598
20:04 1003 29.62 832 24.57 5 41 56 -3 26.6 -91.4 -3.598
20:05 1003 29.62 832 24.57 4.9 40.9 56 -3.1 26.4 -91.4 -3.598
20:06 1003 29.62 832 24.57 4.9 40.9 56 -3 26.6 -91.4 -3.598
20:07 1003 29.62 832 24.57 4.8 40.7 57 -2.9 26.7 -91.4 -3.598
20:08 1003 29.62 832 24.57 4.8 40.6 57 -3 26.6 -91.4 -3.598
20:09 1003 29.62 832 24.57 4.7 40.5 57 -3 26.6 -91.4 -3.598
20:10 1003 29.62 832 24.57 4.6 40.3 57 -3.1 26.4 -91.4 -3.598
20:11 1003 29.62 832 24.57 4.7 40.4 57 -3 26.6 -91.4 -3.598
20:12 1003 29.62 832 24.57 4.7 40.4 57 -3 26.6 -91.4 -3.598
20:13 1003 29.62 832 24.57 4.7 40.4 58 -2.8 26.9 -91.4 -3.598
20:14 1003 29.62 832 24.57 4.5 40.2 58 -2.9 26.7 -91.4 -3.598
20:15 1003 29.62 832 24.57 4.4 40 59 -2.9 26.8 -91.4 -3.598
20:16 1003 29.62 832 24.57 4.4 39.9 59 -2.9 26.9 -91.4 -3.598
20:17 1003 29.62 832 24.57 4.3 39.8 59 -3 26.6 -91.4 -3.598
20:18 1003 29.62 832 24.57 4.4 39.9 58 -3.1 26.5 -91.4 -3.598
20:19 1003 29.62 832 24.57 4.5 40 57 -3.2 26.2 -91.4 -3.598
20:20 1003 29.62 832 24.57 4.5 40.1 58 -3 26.6 -91.4 -3.598
20:21 1003 29.62 832 24.57 4.6 40.2 57 -3.2 26.2 -91.4 -3.598
20:22 1003 29.62 832 24.57 4.7 40.4 57 -3 26.6 -91.4 -3.598
20:23 1003 29.62 832 24.57 4.7 40.4 57 -3.1 26.4 -91.3 -3.594
20:24 1003 29.62 832 24.57 4.7 40.4 57 -3 26.5 -91.3 -3.594
20:25 1003 29.62 832 24.57 4.7 40.4 57 -3 26.6 -91.4 -3.598
20:26 1003 29.62 832 24.57 4.6 40.4 58 -2.9 26.8 -91.3 -3.594
20:27 1003 29.62 832 24.57 4.6 40.3 58 -3 26.7 -91.3 -3.594
20:28 1003 29.62 832 24.57 4.6 40.2 58 -3 26.6 -91.3 -3.594
20:29 1003 29.62 832 24.57 4.5 40.1 58 -2.9 26.8 -91.3 -3.594
20:30 1003 29.62 832 24.57 4.5 40.1 59 -2.9 26.8 -91.4 -3.598
20:31 1003 29.62 832 24.57 4.4 40 59 -2.9 26.9 -91.3 -3.594
20:32 1003 29.62 832 24.57 4.4 39.9 59 -3 26.6 -91.3 -3.594
20:33 1003 29.62 832 24.57 4.4 40 58 -3.2 26.2 -91.3 -3.594
20:34 1003 29.62 832 24.57 4.5 40.2 58 -3 26.6 -91.3 -3.594
20:35 1003 29.62 832 24.57 4.6 40.3 58 -2.9 26.7 -91.3 -3.594
20:36 1003 29.62 832 24.57 4.7 40.4 58 -3 26.7 -91.3 -3.594
20:37 1003 29.62 832 24.57 4.7 40.4 58 -2.9 26.7 -91.3 -3.594
20:38 1003 29.62 832 24.57 4.7 40.5 58 -2.8 26.9 -91.3 -3.594
20:39 1003 29.62 832 24.57 4.7 40.4 59 -2.8 27 -91.3 -3.594
20:40 1003 29.62 832 24.57 4.6 40.3 58 -2.8 26.9 -91.3 -3.594
20:41 1003 29.62 832 24.57 4.5 40.2 59 -2.7 27.1 -91.3 -3.594
20:42 1003 29.62 832 24.57 4.5 40.2 59 -2.9 26.9 -91.3 -3.594
20:43 1003 29.62 832 24.57 4.5 40.1 60 -2.7 27.2 -91.3 -3.594
20:44 1003 29.62 832 24.57 4.4 40 60 -2.7 27.2 -91.3 -3.594
20:45 1003 29.62 832 24.57 4.4 39.8 59 -2.8 26.9 -91.3 -3.594
20:46 1003 29.62 832 24.57 4.3 39.8 60 -2.7 27.2 -91.3 -3.594
20:47 1003 29.62 832 24.57 4.3 39.7 61 -2.7 27.2 -91.3 -3.594
20:48 1003 29.62 832 24.57 4.3 39.7 60 -2.7 27.1 -91.3 -3.594
20:49 1003 29.62 832 24.57 4.2 39.6 61 -2.7 27.1 -91.3 -3.594
20:50 1003 29.62 832 24.57 4.2 39.6 61 -2.7 27.1 -91.3 -3.594
20:51 1003 29.62 832 24.57 4.2 39.6 61 -2.6 27.3 -91.3 -3.594
20:52 1003 29.62 832 24.57 4.2 39.5 61 -2.7 27.1 -91.3 -3.594
20:53 1003 29.62 832 24.57 4.2 39.5 60 -2.8 26.9 -91.3 -3.594
20:54 1003 29.62 832 24.57 4.2 39.6 60 -2.9 26.8 -91.3 -3.594
20:55 1003 29.62 832 24.57 4.4 39.8 60 -2.7 27.1 -91.3 -3.594
20:56 1003 29.62 832 24.57 4.4 39.9 59 -2.9 26.7 -91.3 -3.594
20:57 1003 29.62 832 24.57 4.5 40.1 59 -2.8 27 -91.3 -3.594
20:58 1003 29.62 832 24.57 4.5 40.1 59 -2.8 27 -91.3 -3.594
20:59 1003 29.62 832 24.57 4.5 40.2 58 -3 26.6 -91.3 -3.594
21:00 1003 29.62 832 24.57 4.6 40.2 58 -2.9 26.7 -91.3 -3.594
21:01 1003 29.62 832 24.57 4.5 40.2 58 -3 26.7 -91.3 -3.594
21:02 1003 29.62 832 24.57 4.6 40.2 58 -2.9 26.8 -91.3 -3.594
21:03 1003 29.62 832 24.57 4.5 40.2 59 -2.8 26.9 -91.3 -3.594
21:04 1003 29.62 832 24.57 4.6 40.2 58 -2.9 26.7 -91.3 -3.594
21:05 1003 29.62 832 24.57 4.6 40.3 59 -2.7 27.1 -91.3 -3.594
21:06 1003 29.62 832 24.57 4.5 40.1 59 -2.9 26.8 -91.3 -3.594
21:07 1003 29.62 832 24.57 4.5 40.1 59 -2.8 26.9 -91.3 -3.594
21:08 1003 29.62 832 24.57 4.6 40.2 59 -2.8 27 -91.3 -3.594
21:09 1003 29.62 832 24.57 4.5 40.1 59 -2.7 27.1 -91.3 -3.594
21:10 1003 29.62 832 24.57 4.5 40.1 58 -3 26.6 -91.3 -3.594
21:11 1003 29.62 832 24.57 4.6 40.3 58 -2.9 26.8 -91.3 -3.594
21:12 1003 29.62 832 24.57 4.6 40.4 58 -3 26.7 -91.3 -3.594
21:13 1003 29.62 832 24.57 4.7 40.5 57 -3 26.6 -91.3 -3.594
21:14 1003 29.62 832 24.57 4.8 40.7 58 -2.8 26.9 -91.3 -3.594
21:15 1003 29.62 832 24.57 4.9 40.7 57 -2.9 26.7 -91.3 -3.594
21:16 1003 29.62 832 24.57 4.8 40.7 57 -3 26.6 -91.3 -3.594
21:17 1003 29.62 832 24.57 4.8 40.7 57 -2.8 26.9 -91.3 -3.594
21:18 1003 29.62 832 24.57 4.8 40.6 58 -2.9 26.8 -91.3 -3.594
21:19 1003 29.62 832 24.57 4.7 40.5 57 -3 26.6 -91.3 -3.594
21:20 1003 29.62 832 24.57 4.8 40.6 58 -2.8 26.9 -91.3 -3.594
21:21 1003 29.62 832 24.57 4.7 40.5 58 -2.9 26.8 -91.3 -3.594
21:22 1003 29.62 832 24.57 4.8 40.6 58 -2.7 27.2 -91.3 -3.594
21:23 1003 29.62 832 24.57 4.7 40.5 58 -2.9 26.8 -91.3 -3.594
21:24 1003 29.62 832 24.57 4.7 40.5 58 -2.9 26.7 -91.3 -3.594
21:25 1003 29.62 832 24.57 4.8 40.6 58 -2.9 26.8 -91.2 -3.591
21:26 1003 29.62 832 24.57 4.8 40.6 57 -2.9 26.7 -91.2 -3.591
21:27 1003 29.62 832 24.57 4.8 40.6 57 -2.9 26.8 -91.2 -3.591
21:28 1003 29.62 832 24.57 4.8 40.7 57 -2.9 26.7 -91.2 -3.591
21:29 1003 29.62 832 24.57 4.8 40.6 58 -2.8 26.9 -91.2 -3.591
21:30 1003 29.62 832 24.57 4.8 40.6 58 -2.8 26.9 -91.2 -3.591
21:31 1003 29.62 832 24.57 4.7 40.5 58 -2.8 27 -91.2 -3.591
21:32 1003 29.62 832 24.57 4.7 40.5 58 -2.9 26.9 -91.2 -3.591
21:33 1003 29.62 832 24.57 4.6 40.3 59 -2.8 27 -91.2 -3.591
21:34 1003 29.62 832 24.57 4.6 40.3 59 -2.7 27.1 -91.2 -3.591
21:35 1003 29.62 832 24.57 4.6 40.3 59 -2.8 26.9 -91.2 -3.591
21:36 1003 29.62 832 24.57 4.6 40.2 59 -2.8 26.9 -91.2 -3.591
21:37 1003 29.62 832 24.57 4.6 40.3 59 -2.8 27 -91.2 -3.591
21:38 1003 29.62 832 24.57 4.7 40.4 58 -2.9 26.8 -91.2 -3.591
21:39 1003 29.62 832 24.57 4.7 40.4 58 -2.9 26.7 -91.2 -3.591
21:40 1003 29.62 832 24.57 4.7 40.5 58 -2.8 27 -91.2 -3.591
21:41 1003 29.62 832 24.57 4.7 40.4 58 -2.8 26.9 -91.2 -3.591
21:42 1003 29.62 832 24.57 4.6 40.3 59 -2.7 27.1 -91.2 -3.591
21:43 1003 29.62 832 24.57 4.5 40.2 59 -2.7 27.1 -91.2 -3.591
21:44 1003 29.62 832 24.57 4.5 40.1 59 -2.9 26.7 -91.2 -3.591
21:45 1003 29.62 832 24.57 4.6 40.2 59 -2.8 27 -91.2 -3.591
21:46 1003 29.62 832 24.57 4.6 40.3 59 -2.7 27.2 -91.2 -3.591
21:47 1003 29.62 832 24.57 4.5 40.2 59 -2.9 26.8 -91.2 -3.591
21:48 1003 29.62 832 24.57 4.5 40.1 59 -2.9 26.8 -91.2 -3.591
21:49 1003 29.62 832 24.57 4.5 40.2 58 -2.9 26.7 -91.2 -3.591
21:50 1003 29.62 832 24.57 4.5 40.2 58 -2.9 26.7 -91.2 -3.591
21:51 1003 29.62 832 24.57 4.6 40.2 58 -2.9 26.8 -91.2 -3.591
21:52 1003 29.62 832 24.57 4.6 40.2 58 -3 26.7 -91.2 -3.591
21:53 1003 29.62 832 24.57 4.6 40.2 59 -2.8 27 -91.2 -3.591
21:54 1003 29.62 832 24.57 4.5 40.1 60 -2.7 27.2 -91.2 -3.591
21:55 1003 29.62 832 24.57 4.4 39.9 60 -2.8 27 -91.2 -3.591
21:56 1003 29.62 832 24.57 4.3 39.8 59 -2.9 26.7 -91.2 -3.591
21:57 1003 29.62 832 24.57 4.4 40 59 -2.8 26.9 -91.2 -3.591
21:58 1003 29.62 832 24.57 4.4 39.9 60 -2.7 27.2 -91.2 -3.591
21:59 1003 29.62 832 24.57 4.3 39.7 60 -2.8 27 -91.2 -3.591
22:00 1003 29.62 832 24.57 4.2 39.6 61 -2.7 27.1 -91.2 -3.591
22:01 1003 29.62 832 24.57 4.1 39.4 60 -2.8 26.9 -91.2 -3.591
22:02 1003 29.62 832 24.57 4.1 39.5 61 -2.7 27.1 -91.2 -3.591
22:03 1003 29.62 832 24.57 4.1 39.3 61 -2.8 26.9 -91.2 -3.591
22:04 1003 29.62 832 24.57 4 39.2 62 -2.7 27.2 -91.2 -3.591
22:05 1003 29.62 832 24.57 3.9 39.1 62 -2.8 27 -91.2 -3.591
22:06 1003 29.62 832 24.57 3.9 38.9 62 -2.8 26.9 -91.2 -3.591
22:07 1003 29.62 832 24.57 3.9 38.9 61 -2.9 26.8 -91.2 -3.591
22:08 1003 29.62 832 24.57 3.9 39 61 -3 26.7 -91.2 -3.591
22:09 1003 29.62 832 24.57 3.9 39 61 -3 26.6 -91.2 -3.591
22:10 1003 29.62 832 24.57 4 39.1 61 -2.9 26.8 -91.2 -3.591
22:11 1003 29.62 832 24.57 4 39.2 61 -2.9 26.8 -91.2 -3.591
22:12 1003 29.62 832 24.57 4.1 39.3 61 -2.9 26.9 -91.2 -3.591
22:13 1003 29.62 832 24.57 4.1 39.3 61 -2.8 26.9 -91.2 -3.591
22:14 1003 29.62 832 24.57 4.1 39.3 60 -2.9 26.8 -91.2 -3.591
22:15 1003 29.62 832 24.57 4.1 39.4 61 -2.8 27 -91.2 -3.591
22:16 1003 29.62 832 24.57 4.2 39.5 61 -2.8 27 -91.2 -3.591
22:17 1003 29.62 832 24.57 4.1 39.4 60 -3 26.6 -91.2 -3.591
22:18 1003 29.62 832 24.57 4.2 39.5 60 -3 26.6 -91.2 -3.591
22:19 1003 29.62 832 24.57 4.3 39.7 60 -2.9 26.8 -91.2 -3.591
22:20 1003 29.62 832 24.57 4.3 39.8 59 -2.9 26.7 -91.2 -3.591
22:21 1003 29.62 832 24.57 4.5 40 58 -3.1 26.4 -91.2 -3.591
22:22 1003 29.62 832 24.57 4.6 40.3 56 -3.3 26 -91.2 -3.591
22:23 1003 29.62 832 24.57 4.8 40.7 56 -3.2 26.2 -91.2 -3.591
22:24 1003 29.62 832 24.57 5 41 56 -3 26.7 -91.2 -3.591
22:25 1003 29.62 832 24.57 5 41 56 -3 26.6 -91.2 -3.591
22:26 1003 29.62 832 24.57 5 41 56 -3.1 26.5 -91.2 -3.591
22:27 1003 29.62 832 24.57 5.1 41.1 55 -3.3 26.1 -91.2 -3.591
22:28 1003 29.62 832 24.57 5.1 41.2 55 -3.2 26.3 -91.2 -3.591
22:29 1003 29.62 832 24.57 5.2 41.3 55 -3.2 26.3 -91.2 -3.591
22:30 1003 29.62 832 24.57 5.2 41.4 56 -3 26.7 -91.2 -3.591
22:31 1003 29.62 833 24.6 5.1 41.1 56 -3.1 26.5 -91.2 -3.591
22:32 1003 29.62 833 24.6 5 41.1 56 -3 26.5 -91.2 -3.591
22:33 1003 29.62 832 24.57 5 41 56 -3 26.6 -91.2 -3.591
22:34 1003 29.62 833 24.6 5 41 56 -3 26.5 -91.2 -3.591
22:35 1003 29.62 833 24.6 5 41 56 -3 26.6 -91.2 -3.591
22:36 1003 29.62 833 24.6 5 41 56 -3.2 26.3 -91.2 -3.591
22:37 1003 29.62 833 24.6 5 41 56 -3 26.6 -91.2 -3.591
22:38 1003 29.62 833 24.6 5 41 56 -2.9 26.7 -91.2 -3.591
22:39 1003 29.62 833 24.6 5 40.9 56 -3 26.6 -91.2 -3.591
22:40 1003 29.62 833 24.6 5 40.9 56 -3 26.6 -91.2 -3.591
22:41 1003 29.62 833 24.6 4.9 40.9 56 -3.1 26.4 -91.2 -3.591
22:42 1003 29.62 833 24.6 4.9 40.8 57 -2.9 26.8 -91.2 -3.591
22:43 1003 29.62 833 24.6 4.8 40.7 57 -2.9 26.7 -91.2 -3.591
22:44 1003 29.62 833 24.6 4.8 40.6 57 -2.9 26.7 -91.2 -3.591
22:45 1003 29.62 833 24.6 4.8 40.6 57 -2.9 26.7 -91.2 -3.591
22:46 1003 29.62 833 24.6 4.7 40.5 57 -3 26.6 -91.2 -3.591
22:47 1003 29.62 833 24.6 4.7 40.5 56 -3.2 26.2 -91.2 -3.591
22:48 1003 29.62 833 24.6 4.8 40.6 57 -3 26.6 -91.2 -3.591
22:49 1003 29.62 833 24.6 4.7 40.5 57 -3.1 26.4 -91.2 -3.591
22:50 1003 29.62 833 24.6 4.7 40.5 57 -3 26.5 -91.2 -3.591
22:51 1003 29.62 833 24.6 4.7 40.5 57 -3 26.5 -91.2 -3.591
22:52 1003 29.62 833 24.6 4.7 40.5 57 -3 26.6 -91.2 -3.591
22:53 1003 29.62 833 24.6 4.7 40.4 57 -3.2 26.3 -91.2 -3.591
22:54 1003 29.62 833 24.6 4.7 40.5 56 -3.2 26.2 -91.2 -3.591
22:55 1003 29.62 833 24.6 4.8 40.7 57 -3 26.6 -91.2 -3.591
22:56 1003 29.62 833 24.6 4.8 40.6 57 -3.1 26.5 -91.2 -3.591
22:57 1003 29.62 833 24.6 4.7 40.5 57 -3.1 26.4 -91.1 -3.587
22:58 1003 29.62 833 24.6 4.7 40.4 58 -3 26.6 -91.1 -3.587
22:59 1003 29.62 833 24.6 4.7 40.4 57 -3.1 26.4 -91.1 -3.587
23:00 1004 29.65 833 24.6 4.7 40.5 57 -3.2 26.3 -91.1 -3.587
23:01 1004 29.65 833 24.6 4.8 40.7 56 -3.2 26.2 -91.1 -3.587
23:02 1004 29.65 833 24.6 4.9 40.8 56 -3.1 26.4 -91.2 -3.591
23:03 1004 29.65 833 24.6 4.9 40.8 57 -3 26.7 -91.2 -3.591
23:04 1004 29.65 833 24.6 4.8 40.7 58 -2.8 26.9 -91.1 -3.587
23:05 1004 29.65 833 24.6 4.8 40.6 57 -2.9 26.7 -91.1 -3.587
23:06 1004 29.65 833 24.6 4.7 40.5 57 -3.1 26.5 -91.1 -3.587
23:07 1004 29.65 833 24.6 4.8 40.6 57 -3 26.5 -91.1 -3.587
23:08 1004 29.65 833 24.6 4.7 40.5 58 -2.9 26.7 -91.1 -3.587
23:09 1004 29.65 833 24.6 4.7 40.5 57 -3 26.6 -91.1 -3.587
23:10 1004 29.65 833 24.6 4.7 40.4 58 -3 26.6 -91.1 -3.587
23:11 1004 29.65 833 24.6 4.7 40.5 57 -3.1 26.3 -91.1 -3.587
23:12 1004 29.65 833 24.6 4.8 40.6 56 -3.4 25.9 -91.1 -3.587
23:13 1004 29.65 833 24.6 4.9 40.7 56 -3.1 26.4 -91.1 -3.587
23:14 1004 29.65 833 24.6 4.9 40.8 56 -3.2 26.2 -91.1 -3.587
23:15 1004 29.65 833 24.6 5 40.9 56 -3.1 26.4 -91.1 -3.587
23:16 1004 29.65 833 24.6 5 40.9 56 -3 26.6 -91.1 -3.587
23:17 1004 29.65 833 24.6 5 41 55 -3.3 26.1 -91.1 -3.587
23:18 1004 29.65 833 24.6 5.1 41.2 55 -3.2 26.2 -91.1 -3.587
23:19 1004 29.65 833 24.6 5.1 41.1 56 -3 26.5 -91.1 -3.587
23:20 1004 29.65 833 24.6 5 41 55 -3.3 26 -91.1 -3.587
23:21 1004 29.65 833 24.6 5.1 41.1 55 -3.1 26.4 -91.1 -3.587
23:22 1004 29.65 833 24.6 5.1 41.1 56 -3 26.6 -91.1 -3.587
23:23 1004 29.65 833 24.6 5.1 41.1 56 -3 26.7 -91.1 -3.587
23:24 1004 29.65 833 24.6 5.1 41.2 55 -3.3 26.1 -91.1 -3.587
23:25 1004 29.65 833 24.6 5.2 41.4 56 -2.9 26.8 -91.1 -3.587
23:26 1004 29.65 833 24.6 5.2 41.4 56 -2.9 26.7 -91.1 -3.587
23:27 1004 29.65 833 24.6 5.2 41.3 55 -3.1 26.4 -91.1 -3.587
23:28 1004 29.65 833 24.6 5.2 41.4 56 -2.9 26.8 -91.1 -3.587
23:29 1004 29.65 833 24.6 5.1 41.2 56 -2.9 26.7 -91.1 -3.587
23:30 1004 29.65 833 24.6 5.1 41.1 56 -2.9 26.7 -91.1 -3.587
23:31 1004 29.65 833 24.6 5 41 56 -2.9 26.7 -91.1 -3.587
23:32 1004 29.65 833 24.6 5 41 57 -2.9 26.8 -91.1 -3.587
23:33 1004 29.65 833 24.6 5 41 57 -2.9 26.8 -91.1 -3.587
23:34 1004 29.65 833 24.6 5 41 56 -3 26.5 -91.1 -3.587
23:35 1004 29.65 833 24.6 5.1 41.1 56 -2.9 26.8 -91.1 -3.587
23:36 1004 29.65 833 24.6 5.1 41.1 56 -2.9 26.8 -91.1 -3.587
23:37 1004 29.65 833 24.6 5 41 57 -2.7 27.1 -91.1 -3.587
23:38 1004 29.65 833 24.6 4.9 40.9 57 -2.8 26.9 -91.1 -3.587
23:39 1004 29.65 833 24.6 4.9 40.7 58 -2.8 26.9 -91.1 -3.587
23:40 1004 29.65 833 24.6 4.8 40.6 58 -2.7 27.1 -91.1 -3.587
23:41 1004 29.65 833 24.6 4.7 40.5 58 -2.9 26.8 -91.1 -3.587
23:42 1004 29.65 833 24.6 4.7 40.5 58 -2.9 26.8 -91.1 -3.587
23:43 1004 29.65 833 24.6 4.7 40.5 58 -2.8 27 -91.1 -3.587
23:44 1004 29.65 833 24.6 4.7 40.4 58 -2.8 26.9 -91.1 -3.587
23:45 1004 29.65 833 24.6 4.7 40.5 59 -2.6 27.3 -91.1 -3.587
23:46 1004 29.65 833 24.6 4.7 40.5 59 -2.6 27.3 -91.1 -3.587
23:47 1004 29.65 833 24.6 4.7 40.4 59 -2.7 27.2 -91.1 -3.587
23:48 1004 29.65 833 24.6 4.6 40.3 59 -2.8 27 -91.1 -3.587
23:49 1004 29.65 833 24.6 4.7 40.4 58 -2.8 26.9 -91.1 -3.587
23:50 1004 29.65 833 24.6 4.7 40.5 59 -2.7 27.1 -91.1 -3.587
23:51 1004 29.65 833 24.6 4.7 40.5 59 -2.6 27.2 -91.1 -3.587
23:52 1004 29.65 833 24.6 4.7 40.4 59 -2.6 27.2 -91.1 -3.587
23:53 1004 29.65 833 24.6 4.7 40.4 59 -2.7 27.1 -91.1 -3.587
23:54 1004 29.65 833 24.6 4.7 40.4 59 -2.6 27.2 -91.1 -3.587
23:55 1004 29.65 833 24.6 4.6 40.3 59 -2.7 27.2 -91.1 -3.587
23:56 1004 29.65 833 24.6 4.6 40.2 60 -2.6 27.3 -91.1 -3.587
23:57 1004 29.65 833 24.6 4.5 40.1 60 -2.6 27.4 -91.1 -3.587
23:58 1004 29.65 833 24.6 4.5 40.1 59 -2.8 27 -91.1 -3.587
23:59 1004 29.65 833 24.6 4.6 40.2 58 -2.9 26.7 -91.1 -3.587
24:00 1004 29.65 833 24.6 4.7 40.4 57 -3.1 26.5 -91.1 -3.587